CMP216 MPTO-SBGL
Flight info
| Callsign | CMP216 |
|---|---|
| Flight time | 6h 45m |
| Altitude | 33000 |
| Route | REMA1A REMAL KAKOL UP530 BOG UL300 POVSO UP527 EGDUK UP793 MOPIM UL795 TEDER UZ24 MAVGU UTBO2A |
| Aircraft | B738/M-SDE3FGHIRWY/S |
Departure
| Time | 2026-04-29 17:24 |
|---|---|
| Airport | Tocumen International Airport (MPTO) |
Arrival
| Time | 2026-04-30 00:09 |
|---|---|
| Airport | Rio Galeão – Tom Jobim International Airport (SBGL) |
| Time | Latitude | Longitude | Altitude | Speed | Heading |
|---|---|---|---|---|---|
| 2026-04-29 16:56 | 9.06305 | -79.38883 | 29 ft | 0 kts | 282° |
| 2026-04-29 17:12 | 9.06302 | -79.38870 | 29 ft | 4 kts | 279° |
| 2026-04-29 17:12 | 9.06300 | -79.38843 | 24 ft | 4 kts | 270° |
| 2026-04-29 17:12 | 9.06301 | -79.38825 | 29 ft | 4 kts | 260° |
| 2026-04-29 17:13 | 9.06314 | -79.38795 | 29 ft | 4 kts | 207° |
| 2026-04-29 17:13 | 9.06323 | -79.38792 | 29 ft | 0 kts | 182° |
| 2026-04-29 17:16 | 9.06300 | -79.38792 | 29 ft | 6 kts | 180° |
| 2026-04-29 17:16 | 9.06250 | -79.38794 | 29 ft | 7 kts | 186° |
| 2026-04-29 17:16 | 9.06203 | -79.38806 | 29 ft | 7 kts | 201° |
| 2026-04-29 17:17 | 9.06161 | -79.38830 | 29 ft | 7 kts | 214° |
| 2026-04-29 17:17 | 9.06129 | -79.38865 | 29 ft | 7 kts | 235° |
| 2026-04-29 17:17 | 9.06103 | -79.38903 | 29 ft | 7 kts | 216° |
| 2026-04-29 17:17 | 9.06060 | -79.38896 | 29 ft | 7 kts | 141° |
| 2026-04-29 17:18 | 9.06037 | -79.38858 | 29 ft | 6 kts | 121° |
| 2026-04-29 17:18 | 9.06012 | -79.38821 | 29 ft | 6 kts | 124° |
| 2026-04-29 17:18 | 9.05987 | -79.38785 | 29 ft | 6 kts | 127° |
| 2026-04-29 17:18 | 9.05952 | -79.38763 | 29 ft | 6 kts | 173° |
| 2026-04-29 17:19 | 9.05914 | -79.38782 | 29 ft | 6 kts | 212° |
| 2026-04-29 17:19 | 9.05878 | -79.38801 | 29 ft | 6 kts | 207° |
| 2026-04-29 17:19 | 9.05842 | -79.38822 | 29 ft | 6 kts | 212° |
| 2026-04-29 17:19 | 9.05808 | -79.38844 | 29 ft | 6 kts | 212° |
| 2026-04-29 17:20 | 9.05720 | -79.38894 | 29 ft | 19 kts | 210° |
| 2026-04-29 17:20 | 9.05606 | -79.38961 | 29 ft | 19 kts | 210° |
| 2026-04-29 17:20 | 9.05496 | -79.39025 | 29 ft | 18 kts | 211° |
| 2026-04-29 17:20 | 9.05368 | -79.39099 | 29 ft | 21 kts | 210° |
| 2026-04-29 17:21 | 9.05241 | -79.39171 | 29 ft | 21 kts | 209° |
| 2026-04-29 17:21 | 9.05117 | -79.39241 | 29 ft | 20 kts | 210° |
| 2026-04-29 17:21 | 9.04998 | -79.39310 | 29 ft | 19 kts | 210° |
| 2026-04-29 17:21 | 9.04890 | -79.39371 | 29 ft | 13 kts | 204° |
| 2026-04-29 17:22 | 9.04817 | -79.39341 | 29 ft | 13 kts | 121° |
| 2026-04-29 17:22 | 9.04782 | -79.39274 | 29 ft | 7 kts | 105° |
| 2026-04-29 17:22 | 9.04806 | -79.39237 | 30 ft | 7 kts | 32° |
| 2026-04-29 17:22 | 9.04849 | -79.39211 | 30 ft | 10 kts | 30° |
| 2026-04-29 17:23 | 9.04952 | -79.39153 | 31 ft | 28 kts | 27° |
| 2026-04-29 17:23 | 9.05347 | -79.38928 | 30 ft | 103 kts | 29° |
| 2026-04-29 17:23 | 9.06083 | -79.38508 | 30 ft | 144 kts | 28° |
| 2026-04-29 17:23 | 9.07129 | -79.37886 | 90 ft | 199 kts | 32° |
| 2026-04-29 17:24 | 9.08316 | -79.37134 | 976 ft | 197 kts | 38° |
| 2026-04-29 17:24 | 9.09176 | -79.36125 | 2130 ft | 185 kts | 60° |
| 2026-04-29 17:24 | 9.09571 | -79.34872 | 2882 ft | 194 kts | 80° |
| 2026-04-29 17:24 | 9.09623 | -79.33467 | 3277 ft | 204 kts | 92° |
| 2026-04-29 17:25 | 9.09395 | -79.32017 | 3592 ft | 210 kts | 101° |
| 2026-04-29 17:25 | 9.08997 | -79.30608 | 4012 ft | 212 kts | 106° |
| 2026-04-29 17:25 | 9.08511 | -79.29156 | 4126 ft | 228 kts | 105° |
| 2026-04-29 17:25 | 9.08034 | -79.27572 | 4223 ft | 243 kts | 104° |
| 2026-04-29 17:26 | 9.07588 | -79.25869 | 4354 ft | 257 kts | 102° |
| 2026-04-29 17:26 | 9.07184 | -79.24079 | 4742 ft | 263 kts | 100° |
| 2026-04-29 17:26 | 9.06817 | -79.22277 | 5364 ft | 262 kts | 99° |
| 2026-04-29 17:26 | 9.06466 | -79.20454 | 5838 ft | 266 kts | 99° |
| 2026-04-29 17:27 | 9.06119 | -79.18608 | 6434 ft | 265 kts | 99° |
| 2026-04-29 17:27 | 9.05781 | -79.16769 | 6881 ft | 265 kts | 97° |
| 2026-04-29 17:27 | 9.05636 | -79.14867 | 7069 ft | 278 kts | 90° |
| 2026-04-29 17:27 | 9.05615 | -79.12899 | 7570 ft | 281 kts | 88° |
| 2026-04-29 17:28 | 9.05609 | -79.10919 | 8142 ft | 282 kts | 89° |
| 2026-04-29 17:28 | 9.05597 | -79.08928 | 8688 ft | 284 kts | 89° |
| 2026-04-29 17:28 | 9.05576 | -79.06920 | 9263 ft | 286 kts | 89° |
| 2026-04-29 17:28 | 9.05548 | -79.04916 | 9782 ft | 290 kts | 90° |
| 2026-04-29 17:29 | 9.05514 | -79.02878 | 10314 ft | 291 kts | 90° |
| 2026-04-29 17:29 | 9.05476 | -79.00807 | 10780 ft | 296 kts | 90° |
| 2026-04-29 17:29 | 9.05435 | -78.98726 | 11389 ft | 296 kts | 91° |
| 2026-04-29 17:29 | 9.05407 | -78.97315 | 11720 ft | 299 kts | 91° |
| 2026-04-29 17:30 | 9.05350 | -78.94505 | 12424 ft | 303 kts | 91° |
| 2026-04-29 17:30 | 9.05305 | -78.92368 | 12985 ft | 305 kts | 91° |
| 2026-04-29 17:30 | 9.05260 | -78.90206 | 13515 ft | 309 kts | 92° |
| 2026-04-29 17:30 | 9.05214 | -78.88026 | 14043 ft | 311 kts | 92° |
| 2026-04-29 17:31 | 9.05168 | -78.85825 | 14537 ft | 314 kts | 92° |
| 2026-04-29 17:31 | 9.05120 | -78.83602 | 15028 ft | 317 kts | 92° |
| 2026-04-29 17:31 | 9.04814 | -78.81411 | 15433 ft | 323 kts | 107° |
| 2026-04-29 17:31 | 9.04044 | -78.79207 | 15553 ft | 340 kts | 111° |
| 2026-04-29 17:32 | 9.03190 | -78.76916 | 15675 ft | 355 kts | 111° |
| 2026-04-29 17:32 | 9.02303 | -78.74527 | 15804 ft | 369 kts | 111° |
| 2026-04-29 17:32 | 9.01394 | -78.72055 | 16016 ft | 379 kts | 110° |
| 2026-04-29 17:32 | 9.00476 | -78.69527 | 16386 ft | 384 kts | 110° |
| 2026-04-29 17:33 | 8.99560 | -78.66983 | 16855 ft | 386 kts | 110° |
| 2026-04-29 17:33 | 8.98640 | -78.64413 | 17269 ft | 389 kts | 110° |
| 2026-04-29 17:33 | 8.97730 | -78.61860 | 17682 ft | 392 kts | 110° |
| 2026-04-29 17:33 | 8.96801 | -78.59250 | 18103 ft | 395 kts | 110° |
| 2026-04-29 17:34 | 8.95868 | -78.56628 | 18460 ft | 398 kts | 110° |
| 2026-04-29 17:34 | 8.94925 | -78.53979 | 18795 ft | 401 kts | 110° |
| 2026-04-29 17:34 | 8.93978 | -78.51317 | 19136 ft | 403 kts | 110° |
| 2026-04-29 17:34 | 8.93025 | -78.48640 | 19470 ft | 406 kts | 110° |
| 2026-04-29 17:35 | 8.91739 | -78.45026 | 19934 ft | 410 kts | 110° |
| 2026-04-29 17:35 | 8.90454 | -78.41417 | 20353 ft | 414 kts | 110° |
| 2026-04-29 17:35 | 8.89475 | -78.38669 | 20689 ft | 417 kts | 110° |
| 2026-04-29 17:36 | 8.88489 | -78.35903 | 21014 ft | 419 kts | 111° |
| 2026-04-29 17:36 | 8.87497 | -78.33121 | 21339 ft | 422 kts | 111° |
| 2026-04-29 17:36 | 8.86500 | -78.30324 | 21665 ft | 424 kts | 111° |
| 2026-04-29 17:36 | 8.85495 | -78.27507 | 21976 ft | 427 kts | 111° |
| 2026-04-29 17:37 | 8.84497 | -78.24710 | 22267 ft | 429 kts | 110° |
| 2026-04-29 17:37 | 8.83480 | -78.21858 | 22586 ft | 431 kts | 111° |
| 2026-04-29 17:37 | 8.82459 | -78.18998 | 22889 ft | 434 kts | 111° |
| 2026-04-29 17:37 | 8.81431 | -78.16118 | 23172 ft | 436 kts | 111° |
| 2026-04-29 17:38 | 8.80399 | -78.13228 | 23463 ft | 438 kts | 110° |
| 2026-04-29 17:38 | 8.79361 | -78.10321 | 23721 ft | 440 kts | 111° |
| 2026-04-29 17:38 | 8.78322 | -78.07412 | 24003 ft | 440 kts | 111° |
| 2026-04-29 17:38 | 8.77278 | -78.04491 | 24261 ft | 442 kts | 111° |
| 2026-04-29 17:39 | 8.76231 | -78.01563 | 24525 ft | 443 kts | 111° |
| 2026-04-29 17:39 | 8.75182 | -77.98630 | 24784 ft | 444 kts | 111° |
| 2026-04-29 17:39 | 8.74133 | -77.95698 | 25040 ft | 445 kts | 111° |
| 2026-04-29 17:39 | 8.73079 | -77.92752 | 25283 ft | 446 kts | 111° |
| 2026-04-29 17:40 | 8.72022 | -77.89797 | 25531 ft | 447 kts | 111° |
| 2026-04-29 17:40 | 8.70976 | -77.86875 | 25767 ft | 448 kts | 111° |
| 2026-04-29 17:40 | 8.69913 | -77.83908 | 26002 ft | 450 kts | 111° |
| 2026-04-29 17:40 | 8.68845 | -77.80926 | 26232 ft | 451 kts | 111° |
| 2026-04-29 17:41 | 8.67775 | -77.77938 | 26457 ft | 452 kts | 111° |
| 2026-04-29 17:41 | 8.66703 | -77.74946 | 26684 ft | 454 kts | 111° |
| 2026-04-29 17:41 | 8.65626 | -77.71942 | 26912 ft | 455 kts | 111° |
| 2026-04-29 17:41 | 8.64545 | -77.68928 | 27108 ft | 457 kts | 111° |
| 2026-04-29 17:42 | 8.63461 | -77.65905 | 27328 ft | 458 kts | 111° |
| 2026-04-29 17:42 | 8.62374 | -77.62876 | 27530 ft | 459 kts | 111° |
| 2026-04-29 17:42 | 8.61283 | -77.59834 | 27741 ft | 460 kts | 111° |
| 2026-04-29 17:42 | 8.60189 | -77.56787 | 27937 ft | 462 kts | 111° |
| 2026-04-29 17:43 | 8.59091 | -77.53728 | 28133 ft | 464 kts | 111° |
| 2026-04-29 17:43 | 8.57992 | -77.50666 | 28325 ft | 465 kts | 111° |
| 2026-04-29 17:43 | 8.56887 | -77.47589 | 28519 ft | 466 kts | 111° |
| 2026-04-29 17:43 | 8.55743 | -77.44523 | 28694 ft | 467 kts | 116° |
| 2026-04-29 17:44 | 8.54199 | -77.41641 | 28843 ft | 466 kts | 125° |
| 2026-04-29 17:44 | 8.52236 | -77.39046 | 29075 ft | 464 kts | 134° |
| 2026-04-29 17:44 | 8.49926 | -77.36781 | 29353 ft | 462 kts | 139° |
| 2026-04-29 17:44 | 8.47593 | -77.34617 | 29653 ft | 460 kts | 139° |
| 2026-04-29 17:45 | 8.45240 | -77.32425 | 29908 ft | 460 kts | 139° |
| 2026-04-29 17:45 | 8.42901 | -77.30229 | 30126 ft | 459 kts | 139° |
| 2026-04-29 17:45 | 8.40567 | -77.28023 | 30329 ft | 459 kts | 138° |
| 2026-04-29 17:45 | 8.38244 | -77.25817 | 30536 ft | 459 kts | 138° |
| 2026-04-29 17:46 | 8.35920 | -77.23603 | 30758 ft | 458 kts | 138° |
| 2026-04-29 17:46 | 8.33607 | -77.21397 | 30987 ft | 457 kts | 138° |
| 2026-04-29 17:46 | 8.31291 | -77.19188 | 31204 ft | 457 kts | 138° |
| 2026-04-29 17:46 | 8.28981 | -77.16985 | 31416 ft | 456 kts | 138° |
| 2026-04-29 17:47 | 8.26667 | -77.14780 | 31633 ft | 456 kts | 138° |
| 2026-04-29 17:47 | 8.24361 | -77.12583 | 31870 ft | 455 kts | 139° |
| 2026-04-29 17:47 | 8.22061 | -77.10393 | 32101 ft | 454 kts | 139° |
| 2026-04-29 17:47 | 8.19769 | -77.08210 | 32316 ft | 453 kts | 139° |
| 2026-04-29 17:48 | 8.17475 | -77.06027 | 32540 ft | 452 kts | 138° |
| 2026-04-29 17:48 | 8.15188 | -77.03849 | 32784 ft | 451 kts | 138° |
| 2026-04-29 17:48 | 8.12900 | -77.01672 | 32847 ft | 453 kts | 138° |
| 2026-04-29 17:49 | 8.08343 | -76.97337 | 32847 ft | 452 kts | 138° |
| 2026-04-29 17:49 | 8.03795 | -76.93010 | 32862 ft | 448 kts | 138° |
| 2026-04-29 17:50 | 7.99269 | -76.88706 | 32866 ft | 445 kts | 138° |
| 2026-04-29 17:50 | 7.94770 | -76.84430 | 32871 ft | 444 kts | 138° |
| 2026-04-29 17:51 | 7.90278 | -76.80161 | 32882 ft | 443 kts | 138° |
| 2026-04-29 17:51 | 7.85791 | -76.75897 | 32889 ft | 443 kts | 138° |
| 2026-04-29 17:52 | 7.81264 | -76.71672 | 32882 ft | 444 kts | 142° |
| 2026-04-29 17:52 | 7.76239 | -76.68040 | 32882 ft | 445 kts | 146° |
| 2026-04-29 17:53 | 7.71119 | -76.64494 | 32888 ft | 447 kts | 146° |
| 2026-04-29 17:53 | 7.65998 | -76.60897 | 32874 ft | 450 kts | 146° |
| 2026-04-29 17:54 | 7.60900 | -76.57280 | 32886 ft | 451 kts | 146° |
| 2026-04-29 17:54 | 7.55762 | -76.53627 | 32884 ft | 452 kts | 146° |
| 2026-04-29 17:55 | 7.50626 | -76.49976 | 32897 ft | 452 kts | 146° |
| 2026-04-29 17:55 | 7.45491 | -76.46330 | 32906 ft | 451 kts | 146° |
| 2026-04-29 17:56 | 7.40360 | -76.42687 | 32909 ft | 451 kts | 146° |
| 2026-04-29 17:56 | 7.35234 | -76.39049 | 32919 ft | 450 kts | 146° |
| 2026-04-29 17:57 | 7.30123 | -76.35422 | 32933 ft | 449 kts | 146° |
| 2026-04-29 17:57 | 7.25018 | -76.31800 | 32946 ft | 449 kts | 146° |
| 2026-04-29 17:58 | 7.19917 | -76.28182 | 32962 ft | 448 kts | 146° |
| 2026-04-29 17:58 | 7.14827 | -76.24564 | 32974 ft | 448 kts | 146° |
| 2026-04-29 17:59 | 7.09727 | -76.20938 | 32984 ft | 449 kts | 146° |
| 2026-04-29 17:59 | 7.04627 | -76.17312 | 32995 ft | 449 kts | 146° |
| 2026-04-29 18:00 | 6.99515 | -76.13679 | 32993 ft | 449 kts | 146° |
| 2026-04-29 18:00 | 6.94401 | -76.10046 | 33004 ft | 450 kts | 146° |
| 2026-04-29 18:01 | 6.89306 | -76.06428 | 33006 ft | 452 kts | 146° |
| 2026-04-29 18:01 | 6.84160 | -76.02773 | 33011 ft | 453 kts | 146° |
| 2026-04-29 18:02 | 6.78994 | -75.99106 | 33008 ft | 455 kts | 146° |
| 2026-04-29 18:02 | 6.73819 | -75.95434 | 33009 ft | 456 kts | 146° |
| 2026-04-29 18:03 | 6.68631 | -75.91753 | 33018 ft | 456 kts | 146° |
| 2026-04-29 18:03 | 6.63446 | -75.88075 | 33019 ft | 457 kts | 146° |
| 2026-04-29 18:04 | 6.58244 | -75.84387 | 33019 ft | 457 kts | 145° |
| 2026-04-29 18:04 | 6.53049 | -75.80704 | 33017 ft | 457 kts | 145° |
| 2026-04-29 18:05 | 6.47854 | -75.77021 | 33046 ft | 456 kts | 146° |
| 2026-04-29 18:05 | 6.42671 | -75.73349 | 33065 ft | 456 kts | 146° |
| 2026-04-29 18:06 | 6.37494 | -75.69682 | 33088 ft | 454 kts | 146° |
| 2026-04-29 18:06 | 6.32334 | -75.66027 | 33123 ft | 453 kts | 146° |
| 2026-04-29 18:07 | 6.27210 | -75.62399 | 33129 ft | 452 kts | 146° |
| 2026-04-29 18:07 | 6.22069 | -75.58760 | 33128 ft | 451 kts | 146° |
| 2026-04-29 18:08 | 6.16945 | -75.55133 | 33126 ft | 449 kts | 146° |
| 2026-04-29 18:08 | 6.11836 | -75.51518 | 33283 ft | 448 kts | 146° |
| 2026-04-29 18:09 | 6.06736 | -75.47910 | 33273 ft | 447 kts | 145° |
| 2026-04-29 18:09 | 6.01688 | -75.44339 | 33239 ft | 446 kts | 145° |
| 2026-04-29 18:10 | 5.96599 | -75.40762 | 33193 ft | 445 kts | 147° |
| 2026-04-29 18:10 | 5.91392 | -75.37403 | 33152 ft | 444 kts | 148° |
| 2026-04-29 18:11 | 5.86138 | -75.34099 | 33102 ft | 445 kts | 148° |
| 2026-04-29 18:11 | 5.80909 | -75.30779 | 33071 ft | 445 kts | 148° |
| 2026-04-29 18:12 | 5.75721 | -75.27460 | 33065 ft | 445 kts | 147° |
| 2026-04-29 18:12 | 5.70492 | -75.24107 | 33065 ft | 446 kts | 147° |
| 2026-04-29 18:13 | 5.65259 | -75.20753 | 33069 ft | 447 kts | 147° |
| 2026-04-29 18:13 | 5.60012 | -75.17392 | 33076 ft | 447 kts | 147° |
| 2026-04-29 18:14 | 5.54759 | -75.14027 | 33072 ft | 448 kts | 147° |
| 2026-04-29 18:14 | 5.49508 | -75.10665 | 33071 ft | 448 kts | 147° |
| 2026-04-29 18:15 | 5.44263 | -75.07307 | 33035 ft | 449 kts | 147° |
| 2026-04-29 18:15 | 5.38995 | -75.03936 | 32997 ft | 449 kts | 147° |
| 2026-04-29 18:16 | 5.33723 | -75.00561 | 32964 ft | 449 kts | 147° |
| 2026-04-29 18:16 | 5.28453 | -74.97189 | 32923 ft | 449 kts | 147° |
| 2026-04-29 18:17 | 5.23204 | -74.93787 | 32904 ft | 448 kts | 143° |
| 2026-04-29 18:17 | 5.18823 | -74.89374 | 32908 ft | 447 kts | 126° |
| 2026-04-29 18:18 | 5.15600 | -74.84037 | 32913 ft | 447 kts | 121° |
| 2026-04-29 18:18 | 5.12466 | -74.78698 | 32928 ft | 447 kts | 121° |
| 2026-04-29 18:19 | 5.09283 | -74.73349 | 32944 ft | 446 kts | 121° |
| 2026-04-29 18:19 | 5.06087 | -74.68009 | 32966 ft | 446 kts | 121° |
| 2026-04-29 18:20 | 5.02888 | -74.62669 | 32973 ft | 445 kts | 121° |
| 2026-04-29 18:20 | 4.99701 | -74.57346 | 33000 ft | 445 kts | 121° |
| 2026-04-29 18:21 | 4.97055 | -74.52928 | 33018 ft | 445 kts | 121° |
| 2026-04-29 18:21 | 4.93868 | -74.47605 | 33021 ft | 445 kts | 121° |
| 2026-04-29 18:22 | 4.92653 | -74.45577 | 33030 ft | 445 kts | 121° |
| 2026-04-29 18:22 | 4.89569 | -74.40428 | 33074 ft | 444 kts | 121° |
| 2026-04-29 18:23 | 4.86267 | -74.35197 | 33129 ft | 445 kts | 132° |
| 2026-04-29 18:23 | 4.83894 | -74.33223 | 33220 ft | 444 kts | 148° |
| 2026-04-29 18:23 | 4.81123 | -74.31933 | 33206 ft | 447 kts | 163° |
| 2026-04-29 18:24 | 4.74971 | -74.31009 | 33256 ft | 449 kts | 172° |
| 2026-04-29 18:24 | 4.68752 | -74.30353 | 33271 ft | 450 kts | 172° |
| 2026-04-29 18:25 | 4.62517 | -74.29655 | 33264 ft | 451 kts | 172° |
| 2026-04-29 18:25 | 4.56276 | -74.28922 | 33238 ft | 452 kts | 172° |
| 2026-04-29 18:26 | 4.50027 | -74.28177 | 33210 ft | 453 kts | 171° |
| 2026-04-29 18:26 | 4.43770 | -74.27430 | 33165 ft | 453 kts | 172° |
| 2026-04-29 18:27 | 4.37518 | -74.26686 | 33116 ft | 453 kts | 172° |
| 2026-04-29 18:27 | 4.31247 | -74.25940 | 33115 ft | 454 kts | 172° |
| 2026-04-29 18:28 | 4.25011 | -74.25199 | 33114 ft | 454 kts | 172° |
| 2026-04-29 18:28 | 4.18734 | -74.24452 | 33129 ft | 454 kts | 172° |
| 2026-04-29 18:29 | 4.12455 | -74.23706 | 33138 ft | 455 kts | 172° |
| 2026-04-29 18:29 | 4.06171 | -74.22959 | 33131 ft | 455 kts | 172° |
| 2026-04-29 18:30 | 3.99879 | -74.22210 | 33130 ft | 456 kts | 171° |
| 2026-04-29 18:30 | 3.96817 | -74.21469 | 33107 ft | 452 kts | 153° |
| 2026-04-29 18:30 | 3.94181 | -74.19798 | 33151 ft | 447 kts | 137° |
| 2026-04-29 18:30 | 3.92068 | -74.17526 | 33121 ft | 446 kts | 123° |
| 2026-04-29 18:31 | 3.90586 | -74.14810 | 33149 ft | 444 kts | 114° |
| 2026-04-29 18:31 | 3.87993 | -74.09171 | 33117 ft | 446 kts | 114° |
| 2026-04-29 18:32 | 3.85391 | -74.03522 | 33086 ft | 448 kts | 114° |
| 2026-04-29 18:32 | 3.81430 | -73.95075 | 33060 ft | 449 kts | 115° |
| 2026-04-29 18:33 | 3.78756 | -73.89412 | 33043 ft | 450 kts | 115° |
| 2026-04-29 18:33 | 3.76079 | -73.83747 | 33013 ft | 451 kts | 115° |
| 2026-04-29 18:34 | 3.73851 | -73.79030 | 32996 ft | 451 kts | 115° |
| 2026-04-29 18:34 | 3.70715 | -73.72391 | 32970 ft | 451 kts | 115° |
| 2026-04-29 18:35 | 3.68046 | -73.66743 | 32953 ft | 451 kts | 115° |
| 2026-04-29 18:35 | 3.65359 | -73.61057 | 32939 ft | 451 kts | 115° |
| 2026-04-29 18:36 | 3.62668 | -73.55364 | 32929 ft | 451 kts | 115° |
| 2026-04-29 18:36 | 3.59981 | -73.49679 | 32922 ft | 452 kts | 115° |
| 2026-04-29 18:37 | 3.57292 | -73.43994 | 32915 ft | 452 kts | 115° |
| 2026-04-29 18:37 | 3.54602 | -73.38304 | 32902 ft | 452 kts | 115° |
| 2026-04-29 18:38 | 3.51918 | -73.32631 | 32910 ft | 453 kts | 114° |
| 2026-04-29 18:38 | 3.49223 | -73.26932 | 32904 ft | 454 kts | 114° |
| 2026-04-29 18:39 | 3.46515 | -73.21210 | 32907 ft | 455 kts | 114° |
| 2026-04-29 18:39 | 3.43802 | -73.15478 | 32904 ft | 456 kts | 114° |
| 2026-04-29 18:40 | 3.41077 | -73.09722 | 32912 ft | 459 kts | 114° |
| 2026-04-29 18:40 | 3.38337 | -73.03933 | 32901 ft | 461 kts | 114° |
| 2026-04-29 18:41 | 3.32848 | -72.92343 | 32898 ft | 463 kts | 114° |
| 2026-04-29 18:42 | 3.30082 | -72.86505 | 32899 ft | 464 kts | 114° |
| 2026-04-29 18:42 | 3.27318 | -72.80670 | 32897 ft | 464 kts | 114° |
| 2026-04-29 18:43 | 3.24555 | -72.74838 | 32910 ft | 463 kts | 114° |
| 2026-04-29 18:43 | 3.21795 | -72.69016 | 32900 ft | 462 kts | 114° |
| 2026-04-29 18:44 | 3.19042 | -72.63206 | 32900 ft | 461 kts | 114° |
| 2026-04-29 18:44 | 3.16295 | -72.57411 | 32894 ft | 460 kts | 114° |
| 2026-04-29 18:45 | 3.13563 | -72.51675 | 32907 ft | 459 kts | 115° |
| 2026-04-29 18:45 | 3.10635 | -72.45989 | 32895 ft | 459 kts | 117° |
| 2026-04-29 18:46 | 3.07652 | -72.40348 | 32892 ft | 459 kts | 117° |
| 2026-04-29 18:46 | 3.04688 | -72.34704 | 32898 ft | 458 kts | 116° |
| 2026-04-29 18:47 | 3.01748 | -72.29060 | 32898 ft | 457 kts | 116° |
| 2026-04-29 18:47 | 2.98819 | -72.23425 | 32890 ft | 457 kts | 116° |
| 2026-04-29 18:48 | 2.95882 | -72.17772 | 32891 ft | 457 kts | 116° |
| 2026-04-29 18:48 | 2.92946 | -72.12126 | 32891 ft | 457 kts | 116° |
| 2026-04-29 18:49 | 2.90026 | -72.06512 | 32888 ft | 458 kts | 116° |
| 2026-04-29 18:49 | 2.87084 | -72.00855 | 32889 ft | 459 kts | 117° |
| 2026-04-29 18:50 | 2.84130 | -71.95177 | 32890 ft | 460 kts | 117° |
| 2026-04-29 18:50 | 2.81172 | -71.89493 | 32886 ft | 460 kts | 117° |
| 2026-04-29 18:51 | 2.78228 | -71.83836 | 32887 ft | 461 kts | 117° |
| 2026-04-29 18:51 | 2.75268 | -71.78148 | 32884 ft | 461 kts | 117° |
| 2026-04-29 18:52 | 2.72308 | -71.72463 | 32882 ft | 460 kts | 117° |
| 2026-04-29 18:52 | 2.69356 | -71.66792 | 32882 ft | 459 kts | 117° |
| 2026-04-29 18:53 | 2.66400 | -71.61115 | 32879 ft | 458 kts | 117° |
| 2026-04-29 18:53 | 2.63462 | -71.55473 | 32877 ft | 457 kts | 117° |
| 2026-04-29 18:54 | 2.60535 | -71.49852 | 32874 ft | 455 kts | 117° |
| 2026-04-29 18:54 | 2.57631 | -71.44278 | 32882 ft | 454 kts | 117° |
| 2026-04-29 18:55 | 2.54712 | -71.38674 | 32877 ft | 453 kts | 117° |
| 2026-04-29 18:55 | 2.51798 | -71.33082 | 32876 ft | 453 kts | 117° |
| 2026-04-29 18:56 | 2.48887 | -71.27495 | 32879 ft | 452 kts | 117° |
| 2026-04-29 18:56 | 2.45980 | -71.21916 | 32874 ft | 453 kts | 117° |
| 2026-04-29 18:57 | 2.43063 | -71.16319 | 32878 ft | 453 kts | 117° |
| 2026-04-29 18:57 | 2.40150 | -71.10731 | 32878 ft | 454 kts | 117° |
| 2026-04-29 18:58 | 2.37249 | -71.05166 | 32874 ft | 455 kts | 117° |
| 2026-04-29 18:58 | 2.34322 | -70.99552 | 32873 ft | 455 kts | 117° |
| 2026-04-29 18:59 | 2.31393 | -70.93933 | 32870 ft | 456 kts | 117° |
| 2026-04-29 18:59 | 2.28453 | -70.88301 | 32870 ft | 457 kts | 117° |
| 2026-04-29 19:00 | 2.25492 | -70.82672 | 32869 ft | 457 kts | 117° |
| 2026-04-29 19:00 | 2.22524 | -70.77037 | 32869 ft | 457 kts | 117° |
| 2026-04-29 19:01 | 2.19562 | -70.71407 | 32868 ft | 457 kts | 117° |
| 2026-04-29 19:01 | 2.16622 | -70.65817 | 32866 ft | 457 kts | 117° |
| 2026-04-29 19:02 | 2.14143 | -70.61104 | 32868 ft | 457 kts | 117° |
| 2026-04-29 19:02 | 2.10700 | -70.54558 | 32865 ft | 457 kts | 117° |
| 2026-04-29 19:03 | 2.07739 | -70.48929 | 32866 ft | 457 kts | 117° |
| 2026-04-29 19:03 | 2.04781 | -70.43306 | 32867 ft | 457 kts | 117° |
| 2026-04-29 19:04 | 2.01825 | -70.37689 | 32868 ft | 457 kts | 117° |
| 2026-04-29 19:04 | 1.98866 | -70.32066 | 32866 ft | 456 kts | 117° |
| 2026-04-29 19:05 | 1.95931 | -70.26490 | 32869 ft | 456 kts | 117° |
| 2026-04-29 19:05 | 1.92972 | -70.20866 | 32867 ft | 456 kts | 117° |
| 2026-04-29 19:06 | 1.90018 | -70.15254 | 32862 ft | 457 kts | 117° |
| 2026-04-29 19:07 | 1.85576 | -70.06816 | 32867 ft | 457 kts | 117° |
| 2026-04-29 19:07 | 1.82616 | -70.01194 | 32865 ft | 457 kts | 117° |
| 2026-04-29 19:08 | 1.79673 | -69.95604 | 32865 ft | 457 kts | 117° |
| 2026-04-29 19:08 | 1.76712 | -69.89980 | 32867 ft | 457 kts | 117° |
| 2026-04-29 19:09 | 1.73748 | -69.84350 | 32863 ft | 457 kts | 117° |
| 2026-04-29 19:09 | 1.70623 | -69.78809 | 32857 ft | 458 kts | 126° |
| 2026-04-29 19:10 | 1.67016 | -69.74953 | 32858 ft | 458 kts | 141° |
| 2026-04-29 19:10 | 1.62029 | -69.70978 | 32863 ft | 459 kts | 141° |
| 2026-04-29 19:11 | 1.57035 | -69.66990 | 32862 ft | 459 kts | 141° |
| 2026-04-29 19:11 | 1.52060 | -69.62968 | 32865 ft | 460 kts | 141° |
| 2026-04-29 19:12 | 1.47127 | -69.58958 | 32863 ft | 460 kts | 141° |
| 2026-04-29 19:12 | 1.42161 | -69.54915 | 32858 ft | 460 kts | 141° |
| 2026-04-29 19:13 | 1.37193 | -69.50873 | 32858 ft | 460 kts | 141° |
| 2026-04-29 19:13 | 1.32226 | -69.46831 | 32856 ft | 460 kts | 141° |
| 2026-04-29 19:14 | 1.27264 | -69.42796 | 32858 ft | 459 kts | 141° |
| 2026-04-29 19:14 | 1.22315 | -69.38770 | 32858 ft | 459 kts | 141° |
| 2026-04-29 19:15 | 1.17370 | -69.34749 | 32855 ft | 458 kts | 141° |
| 2026-04-29 19:15 | 1.12433 | -69.30734 | 32857 ft | 457 kts | 141° |
| 2026-04-29 19:16 | 1.07501 | -69.26723 | 32858 ft | 456 kts | 141° |
| 2026-04-29 19:16 | 1.02605 | -69.22741 | 32856 ft | 456 kts | 141° |
| 2026-04-29 19:17 | 0.97687 | -69.18742 | 32859 ft | 455 kts | 141° |
| 2026-04-29 19:17 | 0.92771 | -69.14745 | 32857 ft | 455 kts | 141° |
| 2026-04-29 19:18 | 0.87863 | -69.10754 | 32856 ft | 455 kts | 141° |
| 2026-04-29 19:18 | 0.82957 | -69.06766 | 32854 ft | 454 kts | 141° |
| 2026-04-29 19:19 | 0.78048 | -69.02774 | 32852 ft | 455 kts | 141° |
| 2026-04-29 19:19 | 0.73176 | -68.98813 | 32852 ft | 454 kts | 141° |
| 2026-04-29 19:20 | 0.68279 | -68.94832 | 32853 ft | 454 kts | 141° |
| 2026-04-29 19:20 | 0.63385 | -68.90853 | 32847 ft | 453 kts | 141° |
| 2026-04-29 19:21 | 0.58494 | -68.86877 | 32851 ft | 453 kts | 141° |
| 2026-04-29 19:21 | 0.53606 | -68.82903 | 32846 ft | 453 kts | 141° |
| 2026-04-29 19:22 | 0.48716 | -68.78928 | 32851 ft | 453 kts | 141° |
| 2026-04-29 19:22 | 0.43820 | -68.74949 | 32852 ft | 453 kts | 141° |
| 2026-04-29 19:23 | 0.38927 | -68.70971 | 32849 ft | 454 kts | 141° |
| 2026-04-29 19:23 | 0.34024 | -68.66985 | 32846 ft | 454 kts | 141° |
| 2026-04-29 19:24 | 0.29115 | -68.62995 | 32848 ft | 455 kts | 141° |
| 2026-04-29 19:24 | 0.24194 | -68.58995 | 32846 ft | 456 kts | 141° |
| 2026-04-29 19:25 | 0.19307 | -68.55023 | 32844 ft | 456 kts | 141° |
| 2026-04-29 19:25 | 0.14380 | -68.51018 | 32847 ft | 456 kts | 141° |
| 2026-04-29 19:26 | 0.09453 | -68.47013 | 32846 ft | 457 kts | 141° |
| 2026-04-29 19:26 | 0.04519 | -68.43003 | 32845 ft | 457 kts | 141° |
| 2026-04-29 19:27 | -0.00408 | -68.38998 | 32845 ft | 457 kts | 141° |
| 2026-04-29 19:27 | -0.05338 | -68.34990 | 32843 ft | 456 kts | 140° |
| 2026-04-29 19:28 | -0.10260 | -68.30990 | 32847 ft | 456 kts | 140° |
| 2026-04-29 19:28 | -0.15178 | -68.26992 | 32841 ft | 455 kts | 140° |
| 2026-04-29 19:29 | -0.20053 | -68.23029 | 32847 ft | 455 kts | 140° |
| 2026-04-29 19:29 | -0.24961 | -68.19040 | 32844 ft | 454 kts | 140° |
| 2026-04-29 19:30 | -0.29872 | -68.15048 | 32842 ft | 454 kts | 140° |
| 2026-04-29 19:30 | -0.34768 | -68.11068 | 32843 ft | 453 kts | 140° |
| 2026-04-29 19:31 | -0.39659 | -68.07093 | 32845 ft | 453 kts | 140° |
| 2026-04-29 19:31 | -0.44539 | -68.03125 | 32842 ft | 452 kts | 140° |
| 2026-04-29 19:32 | -0.49421 | -67.99157 | 32842 ft | 452 kts | 140° |
| 2026-04-29 19:32 | -0.54263 | -67.95220 | 32845 ft | 451 kts | 140° |
| 2026-04-29 19:33 | -0.59164 | -67.91235 | 32845 ft | 451 kts | 140° |
| 2026-04-29 19:33 | -0.64032 | -67.87277 | 32843 ft | 451 kts | 140° |
| 2026-04-29 19:34 | -0.68871 | -67.83342 | 32843 ft | 452 kts | 140° |
| 2026-04-29 19:34 | -0.73753 | -67.79372 | 32843 ft | 452 kts | 140° |
| 2026-04-29 19:35 | -0.78617 | -67.75376 | 32848 ft | 453 kts | 139° |
| 2026-04-29 19:35 | -0.83461 | -67.71340 | 32842 ft | 453 kts | 139° |
| 2026-04-29 19:36 | -0.88307 | -67.67300 | 32842 ft | 454 kts | 139° |
| 2026-04-29 19:36 | -0.93162 | -67.63259 | 32843 ft | 454 kts | 139° |
| 2026-04-29 19:37 | -0.98017 | -67.59222 | 32845 ft | 454 kts | 139° |
| 2026-04-29 19:37 | -1.02879 | -67.55180 | 32842 ft | 455 kts | 139° |
| 2026-04-29 19:38 | -1.07710 | -67.51163 | 32842 ft | 455 kts | 139° |
| 2026-04-29 19:38 | -1.12576 | -67.47118 | 32843 ft | 455 kts | 139° |
| 2026-04-29 19:39 | -1.17449 | -67.43066 | 32842 ft | 455 kts | 139° |
| 2026-04-29 19:39 | -1.22316 | -67.39018 | 32840 ft | 455 kts | 139° |
| 2026-04-29 19:40 | -1.27179 | -67.34974 | 32844 ft | 455 kts | 139° |
| 2026-04-29 19:40 | -1.32042 | -67.30929 | 32836 ft | 454 kts | 139° |
| 2026-04-29 19:41 | -1.36904 | -67.26886 | 32833 ft | 454 kts | 139° |
| 2026-04-29 19:41 | -1.41756 | -67.22851 | 32839 ft | 453 kts | 139° |
| 2026-04-29 19:42 | -1.46599 | -67.18822 | 32841 ft | 452 kts | 139° |
| 2026-04-29 19:42 | -1.51402 | -67.14827 | 32836 ft | 452 kts | 139° |
| 2026-04-29 19:43 | -1.56232 | -67.10808 | 32834 ft | 451 kts | 139° |
| 2026-04-29 19:43 | -1.61055 | -67.06796 | 32835 ft | 451 kts | 139° |
| 2026-04-29 19:44 | -1.65874 | -67.02786 | 32835 ft | 450 kts | 139° |
| 2026-04-29 19:44 | -1.70690 | -66.98779 | 32837 ft | 450 kts | 139° |
| 2026-04-29 19:45 | -1.75476 | -66.94796 | 32834 ft | 450 kts | 139° |
| 2026-04-29 19:45 | -1.80292 | -66.90788 | 32836 ft | 450 kts | 139° |
| 2026-04-29 19:46 | -1.85105 | -66.86783 | 32838 ft | 450 kts | 139° |
| 2026-04-29 19:46 | -1.89922 | -66.82773 | 32836 ft | 450 kts | 139° |
| 2026-04-29 19:47 | -1.94741 | -66.78761 | 32838 ft | 450 kts | 139° |
| 2026-04-29 19:47 | -1.99530 | -66.74773 | 32835 ft | 450 kts | 139° |
| 2026-04-29 19:48 | -2.04344 | -66.70765 | 32835 ft | 450 kts | 139° |
| 2026-04-29 19:48 | -2.08962 | -66.66543 | 32837 ft | 449 kts | 135° |
| 2026-04-29 19:49 | -2.13440 | -66.62185 | 32835 ft | 449 kts | 135° |
| 2026-04-29 19:49 | -2.17966 | -66.57867 | 32838 ft | 449 kts | 135° |
| 2026-04-29 19:50 | -2.22484 | -66.53560 | 32836 ft | 448 kts | 135° |
| 2026-04-29 19:50 | -2.26962 | -66.49280 | 32836 ft | 448 kts | 135° |
| 2026-04-29 19:51 | -2.31467 | -66.44972 | 32835 ft | 448 kts | 135° |
| 2026-04-29 19:51 | -2.35969 | -66.40667 | 32835 ft | 447 kts | 135° |
| 2026-04-29 19:52 | -2.40468 | -66.36365 | 32840 ft | 447 kts | 135° |
| 2026-04-29 19:52 | -2.44970 | -66.32060 | 32832 ft | 447 kts | 135° |
| 2026-04-29 19:53 | -2.49462 | -66.27765 | 32832 ft | 447 kts | 135° |
| 2026-04-29 19:53 | -2.53952 | -66.23470 | 32830 ft | 446 kts | 135° |
| 2026-04-29 19:54 | -2.60650 | -66.17064 | 32833 ft | 446 kts | 134° |
| 2026-04-29 19:54 | -2.65138 | -66.12771 | 32831 ft | 447 kts | 134° |
| 2026-04-29 19:55 | -2.69627 | -66.08475 | 32839 ft | 446 kts | 134° |
| 2026-04-29 19:55 | -2.74118 | -66.04178 | 32833 ft | 446 kts | 134° |
| 2026-04-29 19:56 | -2.78603 | -65.99886 | 32839 ft | 446 kts | 134° |
| 2026-04-29 19:56 | -2.83093 | -65.95588 | 32832 ft | 447 kts | 134° |
| 2026-04-29 19:57 | -2.86824 | -65.92016 | 32834 ft | 447 kts | 134° |
| 2026-04-29 19:57 | -2.92078 | -65.86986 | 32831 ft | 447 kts | 134° |
| 2026-04-29 19:58 | -2.96545 | -65.82708 | 32837 ft | 447 kts | 134° |
| 2026-04-29 19:58 | -3.01045 | -65.78400 | 32839 ft | 448 kts | 134° |
| 2026-04-29 19:59 | -3.05553 | -65.74084 | 32840 ft | 448 kts | 134° |
| 2026-04-29 19:59 | -3.10055 | -65.69771 | 32840 ft | 449 kts | 134° |
| 2026-04-29 20:00 | -3.14568 | -65.65447 | 32841 ft | 449 kts | 134° |
| 2026-04-29 20:00 | -3.18320 | -65.61851 | 32837 ft | 450 kts | 134° |
| 2026-04-29 20:01 | -3.22838 | -65.57520 | 32842 ft | 450 kts | 134° |
| 2026-04-29 20:01 | -3.27368 | -65.53177 | 32837 ft | 451 kts | 134° |
| 2026-04-29 20:02 | -3.31900 | -65.48832 | 32843 ft | 451 kts | 135° |
| 2026-04-29 20:02 | -3.35665 | -65.45223 | 32835 ft | 451 kts | 135° |
| 2026-04-29 20:03 | -3.40974 | -65.40131 | 32836 ft | 452 kts | 135° |
| 2026-04-29 20:03 | -3.45480 | -65.35807 | 32839 ft | 452 kts | 135° |
| 2026-04-29 20:04 | -3.50028 | -65.31444 | 32842 ft | 452 kts | 135° |
| 2026-04-29 20:04 | -3.54571 | -65.27081 | 32839 ft | 452 kts | 135° |
| 2026-04-29 20:05 | -3.59107 | -65.22720 | 32841 ft | 452 kts | 134° |
| 2026-04-29 20:05 | -3.63648 | -65.18353 | 32845 ft | 452 kts | 134° |
| 2026-04-29 20:06 | -3.68159 | -65.14016 | 32838 ft | 452 kts | 134° |
| 2026-04-29 20:06 | -3.72699 | -65.09649 | 32841 ft | 452 kts | 134° |
| 2026-04-29 20:07 | -3.77236 | -65.05285 | 32836 ft | 453 kts | 134° |
| 2026-04-29 20:07 | -3.81780 | -65.00914 | 32840 ft | 452 kts | 134° |
| 2026-04-29 20:08 | -3.85555 | -64.97281 | 32841 ft | 452 kts | 134° |
| 2026-04-29 20:08 | -3.90862 | -64.92174 | 32838 ft | 452 kts | 134° |
| 2026-04-29 20:09 | -3.95373 | -64.87831 | 32842 ft | 452 kts | 134° |
| 2026-04-29 20:09 | -3.99906 | -64.83466 | 32843 ft | 452 kts | 134° |
| 2026-04-29 20:10 | -4.04442 | -64.79099 | 32845 ft | 452 kts | 134° |
| 2026-04-29 20:10 | -4.08985 | -64.74729 | 32843 ft | 452 kts | 134° |
| 2026-04-29 20:11 | -4.13525 | -64.70360 | 32844 ft | 452 kts | 134° |
| 2026-04-29 20:11 | -4.18030 | -64.66022 | 32844 ft | 452 kts | 134° |
| 2026-04-29 20:12 | -4.22568 | -64.61652 | 32847 ft | 452 kts | 134° |
| 2026-04-29 20:12 | -4.27099 | -64.57287 | 32847 ft | 452 kts | 134° |
| 2026-04-29 20:13 | -4.31639 | -64.52912 | 32842 ft | 453 kts | 134° |
| 2026-04-29 20:13 | -4.36179 | -64.48538 | 32839 ft | 453 kts | 134° |
| 2026-04-29 20:14 | -4.40740 | -64.44164 | 32837 ft | 453 kts | 135° |
| 2026-04-29 20:14 | -4.45298 | -64.39797 | 32840 ft | 453 kts | 135° |
| 2026-04-29 20:15 | -4.49824 | -64.35452 | 32838 ft | 453 kts | 135° |
| 2026-04-29 20:15 | -4.54379 | -64.31074 | 32836 ft | 453 kts | 135° |
| 2026-04-29 20:16 | -4.58937 | -64.26691 | 32840 ft | 454 kts | 135° |
| 2026-04-29 20:16 | -4.63490 | -64.22313 | 32838 ft | 454 kts | 135° |
| 2026-04-29 20:17 | -4.68049 | -64.17928 | 32837 ft | 454 kts | 135° |
| 2026-04-29 20:17 | -4.72583 | -64.13567 | 32837 ft | 454 kts | 135° |
| 2026-04-29 20:18 | -4.77147 | -64.09176 | 32842 ft | 454 kts | 135° |
| 2026-04-29 20:18 | -4.81712 | -64.04782 | 32834 ft | 455 kts | 135° |
| 2026-04-29 20:19 | -4.86277 | -64.00388 | 32838 ft | 455 kts | 135° |
| 2026-04-29 20:19 | -4.90840 | -63.95995 | 32836 ft | 455 kts | 135° |
| 2026-04-29 20:20 | -4.95413 | -63.91591 | 32839 ft | 455 kts | 135° |
| 2026-04-29 20:20 | -4.99986 | -63.87186 | 32837 ft | 455 kts | 135° |
| 2026-04-29 20:21 | -5.04528 | -63.82809 | 32842 ft | 455 kts | 135° |
| 2026-04-29 20:21 | -5.09092 | -63.78408 | 32838 ft | 455 kts | 134° |
| 2026-04-29 20:22 | -5.13649 | -63.74001 | 32838 ft | 454 kts | 134° |
| 2026-04-29 20:22 | -5.18195 | -63.69600 | 32837 ft | 454 kts | 134° |
| 2026-04-29 20:23 | -5.22735 | -63.65206 | 32836 ft | 453 kts | 134° |
| 2026-04-29 20:23 | -5.27270 | -63.60816 | 32836 ft | 452 kts | 134° |
| 2026-04-29 20:24 | -5.31764 | -63.56465 | 32834 ft | 451 kts | 134° |
| 2026-04-29 20:24 | -5.36276 | -63.52095 | 32830 ft | 451 kts | 134° |
| 2026-04-29 20:25 | -5.40790 | -63.47722 | 32836 ft | 450 kts | 134° |
| 2026-04-29 20:25 | -5.45294 | -63.43359 | 32837 ft | 450 kts | 134° |
| 2026-04-29 20:26 | -5.49799 | -63.38993 | 32835 ft | 450 kts | 135° |
| 2026-04-29 20:26 | -5.54303 | -63.34627 | 32835 ft | 450 kts | 135° |
| 2026-04-29 20:27 | -5.58041 | -63.31002 | 32838 ft | 450 kts | 135° |
| 2026-04-29 20:27 | -5.63279 | -63.25922 | 32835 ft | 450 kts | 135° |
| 2026-04-29 20:28 | -5.67791 | -63.21545 | 32836 ft | 450 kts | 135° |
| 2026-04-29 20:28 | -5.72299 | -63.17171 | 32834 ft | 450 kts | 135° |
| 2026-04-29 20:29 | -5.76847 | -63.12846 | 32838 ft | 451 kts | 136° |
| 2026-04-29 20:29 | -5.81471 | -63.08587 | 32834 ft | 451 kts | 136° |
| 2026-04-29 20:30 | -5.86063 | -63.04358 | 32835 ft | 451 kts | 136° |
| 2026-04-29 20:30 | -5.90676 | -63.00089 | 32834 ft | 451 kts | 136° |
| 2026-04-29 20:31 | -5.95287 | -62.95812 | 32836 ft | 451 kts | 136° |
| 2026-04-29 20:31 | -5.99891 | -62.91538 | 32834 ft | 451 kts | 136° |
| 2026-04-29 20:32 | -6.04500 | -62.87259 | 32839 ft | 451 kts | 136° |
| 2026-04-29 20:32 | -6.08335 | -62.83699 | 32834 ft | 451 kts | 136° |
| 2026-04-29 20:33 | -6.13724 | -62.78694 | 32832 ft | 451 kts | 136° |
| 2026-04-29 20:33 | -6.18341 | -62.74405 | 32832 ft | 451 kts | 136° |
| 2026-04-29 20:34 | -6.22949 | -62.70123 | 32833 ft | 451 kts | 136° |
| 2026-04-29 20:34 | -6.27565 | -62.65833 | 32832 ft | 451 kts | 136° |
| 2026-04-29 20:35 | -6.32147 | -62.61574 | 32834 ft | 451 kts | 136° |
| 2026-04-29 20:35 | -6.36755 | -62.57288 | 32838 ft | 451 kts | 136° |
| 2026-04-29 20:36 | -6.41372 | -62.52994 | 32836 ft | 452 kts | 136° |
| 2026-04-29 20:36 | -6.45987 | -62.48699 | 32836 ft | 452 kts | 136° |
| 2026-04-29 20:37 | -6.50603 | -62.44403 | 32835 ft | 452 kts | 136° |
| 2026-04-29 20:37 | -6.55209 | -62.40096 | 32835 ft | 451 kts | 135° |
| 2026-04-29 20:38 | -6.59784 | -62.35782 | 32836 ft | 451 kts | 135° |
| 2026-04-29 20:38 | -6.64353 | -62.31468 | 32833 ft | 450 kts | 135° |
| 2026-04-29 20:39 | -6.68892 | -62.27184 | 32832 ft | 449 kts | 135° |
| 2026-04-29 20:39 | -6.73446 | -62.22887 | 32832 ft | 448 kts | 135° |
| 2026-04-29 20:40 | -6.77988 | -62.18603 | 32832 ft | 447 kts | 135° |
| 2026-04-29 20:40 | -6.82520 | -62.14325 | 32831 ft | 446 kts | 135° |
| 2026-04-29 20:41 | -6.87051 | -62.10047 | 32835 ft | 445 kts | 135° |
| 2026-04-29 20:41 | -6.91569 | -62.05781 | 32837 ft | 445 kts | 135° |
| 2026-04-29 20:42 | -6.96082 | -62.01518 | 32834 ft | 445 kts | 135° |
| 2026-04-29 20:42 | -7.00593 | -61.97256 | 32833 ft | 445 kts | 135° |
| 2026-04-29 20:43 | -7.05114 | -61.92983 | 32833 ft | 445 kts | 135° |
| 2026-04-29 20:43 | -7.09611 | -61.88732 | 32835 ft | 446 kts | 135° |
| 2026-04-29 20:44 | -7.14137 | -61.84451 | 32837 ft | 446 kts | 135° |
| 2026-04-29 20:44 | -7.18668 | -61.80165 | 32834 ft | 447 kts | 135° |
| 2026-04-29 20:45 | -7.23202 | -61.75876 | 32834 ft | 448 kts | 135° |
| 2026-04-29 20:45 | -7.27748 | -61.71573 | 32833 ft | 448 kts | 135° |
| 2026-04-29 20:46 | -7.32297 | -61.67266 | 32832 ft | 449 kts | 135° |
| 2026-04-29 20:46 | -7.36851 | -61.62953 | 32833 ft | 450 kts | 135° |
| 2026-04-29 20:47 | -7.41414 | -61.58631 | 32834 ft | 450 kts | 135° |
| 2026-04-29 20:47 | -7.45208 | -61.55036 | 32836 ft | 451 kts | 135° |
| 2026-04-29 20:48 | -7.50549 | -61.49973 | 32835 ft | 451 kts | 135° |
| 2026-04-29 20:48 | -7.55095 | -61.45662 | 32835 ft | 452 kts | 135° |
| 2026-04-29 20:49 | -7.59678 | -61.41316 | 32836 ft | 452 kts | 135° |
| 2026-04-29 20:49 | -7.63485 | -61.37704 | 32830 ft | 452 kts | 135° |
| 2026-04-29 20:50 | -7.68064 | -61.33358 | 32834 ft | 452 kts | 135° |
| 2026-04-29 20:50 | -7.72646 | -61.29008 | 32840 ft | 452 kts | 135° |
| 2026-04-29 20:51 | -7.77229 | -61.24654 | 32844 ft | 452 kts | 135° |
| 2026-04-29 20:51 | -7.81821 | -61.20310 | 32841 ft | 452 kts | 136° |
| 2026-04-29 20:52 | -7.86448 | -61.16006 | 32837 ft | 452 kts | 136° |
| 2026-04-29 20:52 | -7.91077 | -61.11711 | 32842 ft | 452 kts | 136° |
| 2026-04-29 20:53 | -7.95697 | -61.07413 | 32840 ft | 452 kts | 136° |
| 2026-04-29 20:53 | -8.00286 | -61.03137 | 32841 ft | 452 kts | 136° |
| 2026-04-29 20:54 | -8.07212 | -60.96678 | 32844 ft | 452 kts | 136° |
| 2026-04-29 20:55 | -8.11833 | -60.92367 | 32839 ft | 452 kts | 136° |
| 2026-04-29 20:55 | -8.16446 | -60.88062 | 32839 ft | 452 kts | 136° |
| 2026-04-29 20:56 | -8.21058 | -60.83757 | 32845 ft | 452 kts | 136° |
| 2026-04-29 20:56 | -8.25680 | -60.79440 | 32838 ft | 452 kts | 136° |
| 2026-04-29 20:57 | -8.30290 | -60.75134 | 32840 ft | 452 kts | 136° |
| 2026-04-29 20:57 | -8.34903 | -60.70823 | 32842 ft | 452 kts | 136° |
| 2026-04-29 20:58 | -8.39485 | -60.66540 | 32842 ft | 452 kts | 136° |
| 2026-04-29 20:58 | -8.44099 | -60.62226 | 32836 ft | 452 kts | 136° |
| 2026-04-29 20:59 | -8.48713 | -60.57910 | 32842 ft | 452 kts | 136° |
| 2026-04-29 20:59 | -8.53320 | -60.53598 | 32844 ft | 451 kts | 136° |
| 2026-04-29 21:00 | -8.57927 | -60.49286 | 32839 ft | 451 kts | 136° |
| 2026-04-29 21:00 | -8.62528 | -60.44978 | 32840 ft | 451 kts | 136° |
| 2026-04-29 21:01 | -8.67127 | -60.40670 | 32841 ft | 450 kts | 136° |
| 2026-04-29 21:01 | -8.71725 | -60.36362 | 32843 ft | 450 kts | 135° |
| 2026-04-29 21:02 | -8.76312 | -60.32062 | 32844 ft | 449 kts | 135° |
| 2026-04-29 21:02 | -8.80865 | -60.27793 | 32844 ft | 449 kts | 135° |
| 2026-04-29 21:03 | -8.85445 | -60.23497 | 32846 ft | 448 kts | 135° |
| 2026-04-29 21:03 | -8.90016 | -60.19208 | 32840 ft | 448 kts | 135° |
| 2026-04-29 21:04 | -8.94586 | -60.14917 | 32845 ft | 448 kts | 135° |
| 2026-04-29 21:04 | -8.99164 | -60.10618 | 32836 ft | 448 kts | 135° |
| 2026-04-29 21:05 | -9.03737 | -60.06323 | 32844 ft | 448 kts | 135° |
| 2026-04-29 21:05 | -9.08276 | -60.02058 | 32849 ft | 448 kts | 136° |
| 2026-04-29 21:06 | -9.12852 | -59.97756 | 32841 ft | 449 kts | 136° |
| 2026-04-29 21:06 | -9.17430 | -59.93451 | 32844 ft | 449 kts | 136° |
| 2026-04-29 21:07 | -9.22007 | -59.89145 | 32844 ft | 449 kts | 136° |
| 2026-04-29 21:07 | -9.26587 | -59.84835 | 32843 ft | 449 kts | 136° |
| 2026-04-29 21:08 | -9.31164 | -59.80526 | 32847 ft | 449 kts | 136° |
| 2026-04-29 21:08 | -9.35743 | -59.76213 | 32843 ft | 449 kts | 136° |
| 2026-04-29 21:09 | -9.40321 | -59.71899 | 32843 ft | 449 kts | 136° |
| 2026-04-29 21:09 | -9.44866 | -59.67616 | 32844 ft | 448 kts | 136° |
| 2026-04-29 21:10 | -9.49424 | -59.63319 | 32842 ft | 448 kts | 136° |
| 2026-04-29 21:10 | -9.53982 | -59.59019 | 32844 ft | 447 kts | 136° |
| 2026-04-29 21:11 | -9.58535 | -59.54723 | 32845 ft | 446 kts | 136° |
| 2026-04-29 21:11 | -9.63078 | -59.50434 | 32845 ft | 446 kts | 136° |
| 2026-04-29 21:12 | -9.67595 | -59.46167 | 32844 ft | 446 kts | 136° |
| 2026-04-29 21:12 | -9.72135 | -59.41877 | 32843 ft | 446 kts | 136° |
| 2026-04-29 21:13 | -9.76639 | -59.37556 | 32843 ft | 446 kts | 133° |
| 2026-04-29 21:13 | -9.80835 | -59.32940 | 32848 ft | 445 kts | 130° |
| 2026-04-29 21:14 | -9.84937 | -59.28231 | 32849 ft | 446 kts | 130° |
| 2026-04-29 21:14 | -9.89075 | -59.23523 | 32848 ft | 446 kts | 130° |
| 2026-04-29 21:15 | -9.93232 | -59.18841 | 32848 ft | 447 kts | 131° |
| 2026-04-29 21:15 | -9.97404 | -59.14160 | 32850 ft | 447 kts | 131° |
| 2026-04-29 21:16 | -10.01580 | -59.09475 | 32852 ft | 447 kts | 131° |
| 2026-04-29 21:16 | -10.05755 | -59.04788 | 32852 ft | 448 kts | 131° |
| 2026-04-29 21:17 | -10.09903 | -59.00129 | 32853 ft | 448 kts | 131° |
| 2026-04-29 21:17 | -10.14074 | -58.95441 | 32853 ft | 447 kts | 131° |
| 2026-04-29 21:18 | -10.18244 | -58.90752 | 32856 ft | 447 kts | 131° |
| 2026-04-29 21:18 | -10.22417 | -58.86058 | 32853 ft | 447 kts | 131° |
| 2026-04-29 21:19 | -10.26586 | -58.81367 | 32858 ft | 447 kts | 131° |
| 2026-04-29 21:19 | -10.30753 | -58.76676 | 32858 ft | 447 kts | 131° |
| 2026-04-29 21:20 | -10.34897 | -58.72008 | 32858 ft | 447 kts | 130° |
| 2026-04-29 21:20 | -10.39056 | -58.67322 | 32861 ft | 447 kts | 131° |
| 2026-04-29 21:21 | -10.43213 | -58.62636 | 32865 ft | 447 kts | 131° |
| 2026-04-29 21:21 | -10.47373 | -58.57944 | 32863 ft | 447 kts | 131° |
| 2026-04-29 21:22 | -10.51537 | -58.53246 | 32863 ft | 447 kts | 131° |
| 2026-04-29 21:22 | -10.55700 | -58.48548 | 32865 ft | 447 kts | 131° |
| 2026-04-29 21:23 | -10.59860 | -58.43850 | 32866 ft | 447 kts | 131° |
| 2026-04-29 21:23 | -10.64022 | -58.39148 | 32868 ft | 447 kts | 131° |
| 2026-04-29 21:24 | -10.68185 | -58.34443 | 32864 ft | 448 kts | 131° |
| 2026-04-29 21:24 | -10.72353 | -58.29730 | 32868 ft | 448 kts | 131° |
| 2026-04-29 21:25 | -10.76518 | -58.25018 | 32863 ft | 448 kts | 131° |
| 2026-04-29 21:25 | -10.80691 | -58.20296 | 32865 ft | 448 kts | 131° |
| 2026-04-29 21:26 | -10.84866 | -58.15568 | 32865 ft | 449 kts | 131° |
| 2026-04-29 21:26 | -10.89038 | -58.10843 | 32867 ft | 449 kts | 131° |
| 2026-04-29 21:27 | -10.92505 | -58.06913 | 32864 ft | 449 kts | 131° |
| 2026-04-29 21:27 | -10.97357 | -58.01413 | 32864 ft | 449 kts | 131° |
| 2026-04-29 21:28 | -11.01531 | -57.96677 | 32868 ft | 449 kts | 130° |
| 2026-04-29 21:28 | -11.05702 | -57.91944 | 32866 ft | 449 kts | 130° |
| 2026-04-29 21:29 | -11.09876 | -57.87205 | 32869 ft | 449 kts | 130° |
| 2026-04-29 21:29 | -11.14050 | -57.82462 | 32870 ft | 449 kts | 130° |
| 2026-04-29 21:30 | -11.18219 | -57.77724 | 32870 ft | 449 kts | 130° |
| 2026-04-29 21:30 | -11.22388 | -57.72985 | 32867 ft | 449 kts | 130° |
| 2026-04-29 21:31 | -11.26557 | -57.68247 | 32871 ft | 449 kts | 130° |
| 2026-04-29 21:31 | -11.30727 | -57.63504 | 32868 ft | 449 kts | 130° |
| 2026-04-29 21:32 | -11.34873 | -57.58785 | 32869 ft | 449 kts | 130° |
| 2026-04-29 21:32 | -11.39034 | -57.54046 | 32867 ft | 449 kts | 130° |
| 2026-04-29 21:33 | -11.43196 | -57.49305 | 32867 ft | 449 kts | 130° |
| 2026-04-29 21:33 | -11.47358 | -57.44561 | 32868 ft | 449 kts | 130° |
| 2026-04-29 21:34 | -11.51517 | -57.39818 | 32868 ft | 448 kts | 130° |
| 2026-04-29 21:34 | -11.55678 | -57.35071 | 32870 ft | 449 kts | 130° |
| 2026-04-29 21:35 | -11.59839 | -57.30320 | 32871 ft | 449 kts | 131° |
| 2026-04-29 21:35 | -11.63972 | -57.25600 | 32873 ft | 449 kts | 130° |
| 2026-04-29 21:36 | -11.68136 | -57.20842 | 32871 ft | 449 kts | 130° |
| 2026-04-29 21:36 | -11.72293 | -57.16090 | 32870 ft | 449 kts | 131° |
| 2026-04-29 21:37 | -11.75749 | -57.12137 | 32871 ft | 449 kts | 131° |
| 2026-04-29 21:37 | -11.79912 | -57.07374 | 32871 ft | 449 kts | 131° |
| 2026-04-29 21:38 | -11.84077 | -57.02605 | 32873 ft | 450 kts | 131° |
| 2026-04-29 21:38 | -11.88248 | -56.97829 | 32870 ft | 450 kts | 131° |
| 2026-04-29 21:39 | -11.92410 | -56.93060 | 32872 ft | 450 kts | 130° |
| 2026-04-29 21:39 | -11.96549 | -56.88313 | 32871 ft | 450 kts | 130° |
| 2026-04-29 21:40 | -12.00708 | -56.83542 | 32870 ft | 450 kts | 131° |
| 2026-04-29 21:40 | -12.04871 | -56.78764 | 32871 ft | 450 kts | 131° |
| 2026-04-29 21:41 | -12.09034 | -56.73985 | 32874 ft | 449 kts | 131° |
| 2026-04-29 21:41 | -12.13190 | -56.69209 | 32875 ft | 449 kts | 131° |
| 2026-04-29 21:42 | -12.17340 | -56.64437 | 32875 ft | 449 kts | 130° |
| 2026-04-29 21:42 | -12.21492 | -56.59662 | 32879 ft | 449 kts | 130° |
| 2026-04-29 21:43 | -12.25644 | -56.54887 | 32875 ft | 449 kts | 131° |
| 2026-04-29 21:43 | -12.29793 | -56.50113 | 32877 ft | 449 kts | 131° |
| 2026-04-29 21:44 | -12.33912 | -56.45369 | 32877 ft | 449 kts | 131° |
| 2026-04-29 21:44 | -12.38053 | -56.40597 | 32878 ft | 449 kts | 131° |
| 2026-04-29 21:45 | -12.42204 | -56.35810 | 32877 ft | 449 kts | 131° |
| 2026-04-29 21:45 | -12.46346 | -56.31031 | 32880 ft | 449 kts | 130° |
| 2026-04-29 21:46 | -12.50492 | -56.26245 | 32881 ft | 449 kts | 130° |
| 2026-04-29 21:46 | -12.54689 | -56.21508 | 32879 ft | 449 kts | 134° |
| 2026-04-29 21:47 | -12.59164 | -56.17046 | 32882 ft | 450 kts | 136° |
| 2026-04-29 21:47 | -12.63708 | -56.12638 | 32878 ft | 450 kts | 136° |
| 2026-04-29 21:48 | -12.68230 | -56.08204 | 32878 ft | 450 kts | 135° |
| 2026-04-29 21:48 | -12.72704 | -56.03777 | 32883 ft | 450 kts | 135° |
| 2026-04-29 21:49 | -12.77227 | -55.99286 | 32882 ft | 450 kts | 135° |
| 2026-04-29 21:49 | -12.81721 | -55.94820 | 32881 ft | 450 kts | 135° |
| 2026-04-29 21:50 | -12.86187 | -55.90381 | 32882 ft | 450 kts | 135° |
| 2026-04-29 21:50 | -12.90686 | -55.85908 | 32886 ft | 450 kts | 135° |
| 2026-04-29 21:51 | -12.95181 | -55.81436 | 32885 ft | 450 kts | 135° |
| 2026-04-29 21:51 | -13.01928 | -55.74721 | 32885 ft | 450 kts | 135° |
| 2026-04-29 21:52 | -13.06420 | -55.70246 | 32886 ft | 451 kts | 135° |
| 2026-04-29 21:52 | -13.10916 | -55.65765 | 32887 ft | 451 kts | 135° |
| 2026-04-29 21:53 | -13.15417 | -55.61277 | 32885 ft | 451 kts | 135° |
| 2026-04-29 21:53 | -13.19924 | -55.56780 | 32888 ft | 451 kts | 135° |
| 2026-04-29 21:54 | -13.24423 | -55.52289 | 32883 ft | 451 kts | 135° |
| 2026-04-29 21:54 | -13.28896 | -55.47821 | 32886 ft | 451 kts | 135° |
| 2026-04-29 21:55 | -13.33398 | -55.43322 | 32886 ft | 452 kts | 135° |
| 2026-04-29 21:55 | -13.37901 | -55.38818 | 32888 ft | 452 kts | 135° |
| 2026-04-29 21:56 | -13.42404 | -55.34313 | 32889 ft | 452 kts | 135° |
| 2026-04-29 21:56 | -13.46908 | -55.29804 | 32891 ft | 452 kts | 135° |
| 2026-04-29 21:57 | -13.51410 | -55.25294 | 32888 ft | 452 kts | 135° |
| 2026-04-29 21:57 | -13.55919 | -55.20778 | 32892 ft | 452 kts | 135° |
| 2026-04-29 21:58 | -13.60424 | -55.16264 | 32894 ft | 452 kts | 135° |
| 2026-04-29 21:58 | -13.64931 | -55.11745 | 32891 ft | 452 kts | 135° |
| 2026-04-29 21:59 | -13.69417 | -55.07243 | 32894 ft | 453 kts | 135° |
| 2026-04-29 21:59 | -13.73923 | -55.02719 | 32893 ft | 453 kts | 135° |
| 2026-04-29 22:00 | -13.78432 | -54.98188 | 32897 ft | 453 kts | 135° |
| 2026-04-29 22:00 | -13.82940 | -54.93656 | 32897 ft | 453 kts | 135° |
| 2026-04-29 22:01 | -13.87451 | -54.89119 | 32894 ft | 453 kts | 135° |
| 2026-04-29 22:01 | -13.91961 | -54.84580 | 32897 ft | 453 kts | 135° |
| 2026-04-29 22:02 | -13.96455 | -54.80054 | 32894 ft | 454 kts | 135° |
| 2026-04-29 22:02 | -14.00966 | -54.75509 | 32899 ft | 454 kts | 135° |
| 2026-04-29 22:03 | -14.05482 | -54.70956 | 32898 ft | 454 kts | 135° |
| 2026-04-29 22:03 | -14.09998 | -54.66400 | 32897 ft | 454 kts | 135° |
| 2026-04-29 22:04 | -14.14517 | -54.61838 | 32898 ft | 455 kts | 135° |
| 2026-04-29 22:04 | -14.19034 | -54.57275 | 32897 ft | 455 kts | 135° |
| 2026-04-29 22:05 | -14.23555 | -54.52705 | 32903 ft | 455 kts | 135° |
| 2026-04-29 22:06 | -14.30291 | -54.45803 | 32906 ft | 456 kts | 133° |
| 2026-04-29 22:06 | -14.34507 | -54.40982 | 32911 ft | 456 kts | 131° |
| 2026-04-29 22:07 | -14.38720 | -54.36081 | 32910 ft | 456 kts | 131° |
| 2026-04-29 22:07 | -14.42952 | -54.31213 | 32914 ft | 456 kts | 131° |
| 2026-04-29 22:08 | -14.47201 | -54.26351 | 32918 ft | 456 kts | 131° |
| 2026-04-29 22:08 | -14.51447 | -54.21491 | 32918 ft | 456 kts | 131° |
| 2026-04-29 22:09 | -14.55667 | -54.16655 | 32922 ft | 456 kts | 131° |
| 2026-04-29 22:09 | -14.59945 | -54.11771 | 32924 ft | 456 kts | 132° |
| 2026-04-29 22:10 | -14.64180 | -54.06944 | 32924 ft | 456 kts | 132° |
| 2026-04-29 22:10 | -14.68439 | -54.02086 | 32923 ft | 456 kts | 131° |
| 2026-04-29 22:11 | -14.72701 | -53.97218 | 32927 ft | 456 kts | 131° |
| 2026-04-29 22:11 | -14.76955 | -53.92355 | 32929 ft | 456 kts | 131° |
| 2026-04-29 22:12 | -14.81216 | -53.87480 | 32929 ft | 456 kts | 131° |
| 2026-04-29 22:12 | -14.85449 | -53.82636 | 32932 ft | 456 kts | 131° |
| 2026-04-29 22:13 | -14.89708 | -53.77758 | 32930 ft | 456 kts | 131° |
| 2026-04-29 22:13 | -14.93963 | -53.72881 | 32932 ft | 457 kts | 131° |
| 2026-04-29 22:14 | -14.98216 | -53.68003 | 32932 ft | 457 kts | 131° |
| 2026-04-29 22:14 | -15.02445 | -53.63150 | 32929 ft | 457 kts | 131° |
| 2026-04-29 22:15 | -15.06700 | -53.58264 | 32930 ft | 457 kts | 131° |
| 2026-04-29 22:15 | -15.10955 | -53.53374 | 32930 ft | 457 kts | 131° |
| 2026-04-29 22:16 | -15.15208 | -53.48484 | 32926 ft | 457 kts | 131° |
| 2026-04-29 22:16 | -15.19363 | -53.43506 | 32919 ft | 457 kts | 129° |
| 2026-04-29 22:17 | -15.23400 | -53.38422 | 32924 ft | 457 kts | 129° |
| 2026-04-29 22:17 | -15.27420 | -53.33376 | 32920 ft | 457 kts | 129° |
| 2026-04-29 22:18 | -15.31485 | -53.28309 | 32925 ft | 457 kts | 129° |
| 2026-04-29 22:18 | -15.35558 | -53.23242 | 32920 ft | 457 kts | 129° |
| 2026-04-29 22:19 | -15.39630 | -53.18170 | 32921 ft | 457 kts | 129° |
| 2026-04-29 22:19 | -15.43702 | -53.13094 | 32919 ft | 458 kts | 129° |
| 2026-04-29 22:20 | -15.47780 | -53.08015 | 32917 ft | 458 kts | 129° |
| 2026-04-29 22:20 | -15.51868 | -53.02959 | 32918 ft | 458 kts | 129° |
| 2026-04-29 22:21 | -15.55962 | -52.97900 | 32924 ft | 458 kts | 129° |
| 2026-04-29 22:21 | -15.60049 | -52.92841 | 32917 ft | 458 kts | 129° |
| 2026-04-29 22:22 | -15.64108 | -52.87809 | 32924 ft | 457 kts | 129° |
| 2026-04-29 22:22 | -15.68193 | -52.82742 | 32923 ft | 457 kts | 129° |
| 2026-04-29 22:23 | -15.72278 | -52.77670 | 32921 ft | 457 kts | 129° |
| 2026-04-29 22:23 | -15.76358 | -52.72601 | 32925 ft | 457 kts | 129° |
| 2026-04-29 22:24 | -15.80434 | -52.67533 | 32927 ft | 457 kts | 129° |
| 2026-04-29 22:24 | -15.84503 | -52.62472 | 32936 ft | 457 kts | 129° |
| 2026-04-29 22:25 | -15.88546 | -52.57438 | 32932 ft | 457 kts | 129° |
| 2026-04-29 22:25 | -15.92623 | -52.52359 | 32937 ft | 457 kts | 129° |
| 2026-04-29 22:26 | -15.96013 | -52.48134 | 32934 ft | 457 kts | 129° |
| 2026-04-29 22:26 | -16.00077 | -52.43065 | 32935 ft | 457 kts | 129° |
| 2026-04-29 22:27 | -16.04141 | -52.37991 | 32933 ft | 457 kts | 129° |
| 2026-04-29 22:27 | -16.08207 | -52.32913 | 32930 ft | 457 kts | 129° |
| 2026-04-29 22:28 | -16.12271 | -52.27832 | 32926 ft | 457 kts | 129° |
| 2026-04-29 22:28 | -16.16336 | -52.22747 | 32929 ft | 457 kts | 129° |
| 2026-04-29 22:29 | -16.20375 | -52.17691 | 32923 ft | 457 kts | 129° |
| 2026-04-29 22:29 | -16.24439 | -52.12598 | 32928 ft | 457 kts | 129° |
| 2026-04-29 22:30 | -16.28503 | -52.07504 | 32923 ft | 457 kts | 129° |
| 2026-04-29 22:30 | -16.32588 | -52.02410 | 32932 ft | 458 kts | 130° |
| 2026-04-29 22:31 | -16.36690 | -51.97345 | 32930 ft | 458 kts | 130° |
| 2026-04-29 22:31 | -16.40779 | -51.92294 | 32936 ft | 458 kts | 130° |
| 2026-04-29 22:32 | -16.44882 | -51.87214 | 32936 ft | 458 kts | 130° |
| 2026-04-29 22:32 | -16.48985 | -51.82125 | 32937 ft | 458 kts | 130° |
| 2026-04-29 22:33 | -16.53086 | -51.77035 | 32938 ft | 458 kts | 130° |
| 2026-04-29 22:33 | -16.57186 | -51.71943 | 32944 ft | 458 kts | 130° |
| 2026-04-29 22:34 | -16.61287 | -51.66845 | 32940 ft | 458 kts | 130° |
| 2026-04-29 22:34 | -16.65390 | -51.61743 | 32949 ft | 458 kts | 130° |
| 2026-04-29 22:35 | -16.69461 | -51.56676 | 32953 ft | 458 kts | 130° |
| 2026-04-29 22:35 | -16.73577 | -51.51549 | 32949 ft | 458 kts | 130° |
| 2026-04-29 22:36 | -16.77643 | -51.46481 | 32948 ft | 459 kts | 130° |
| 2026-04-29 22:36 | -16.81742 | -51.41367 | 32949 ft | 459 kts | 130° |
| 2026-04-29 22:37 | -16.85836 | -51.36255 | 32959 ft | 459 kts | 130° |
| 2026-04-29 22:37 | -16.89931 | -51.31139 | 32952 ft | 459 kts | 130° |
| 2026-04-29 22:38 | -16.93984 | -51.25993 | 32957 ft | 459 kts | 129° |
| 2026-04-29 22:38 | -16.97945 | -51.20771 | 32959 ft | 459 kts | 128° |
| 2026-04-29 22:39 | -17.01898 | -51.15539 | 32967 ft | 459 kts | 128° |
| 2026-04-29 22:39 | -17.05863 | -51.10308 | 32971 ft | 459 kts | 128° |
| 2026-04-29 22:40 | -17.09833 | -51.05082 | 32970 ft | 459 kts | 129° |
| 2026-04-29 22:40 | -17.13801 | -50.99858 | 32971 ft | 459 kts | 129° |
| 2026-04-29 22:41 | -17.17771 | -50.94626 | 32971 ft | 459 kts | 129° |
| 2026-04-29 22:41 | -17.21736 | -50.89396 | 32971 ft | 459 kts | 129° |
| 2026-04-29 22:42 | -17.25705 | -50.84157 | 32973 ft | 459 kts | 129° |
| 2026-04-29 22:42 | -17.29649 | -50.78946 | 32971 ft | 459 kts | 129° |
| 2026-04-29 22:43 | -17.33619 | -50.73698 | 32968 ft | 460 kts | 129° |
| 2026-04-29 22:43 | -17.37595 | -50.68437 | 32962 ft | 460 kts | 129° |
| 2026-04-29 22:44 | -17.41569 | -50.63175 | 32962 ft | 460 kts | 129° |
| 2026-04-29 22:44 | -17.45536 | -50.57918 | 32960 ft | 460 kts | 129° |
| 2026-04-29 22:45 | -17.49504 | -50.52655 | 32956 ft | 460 kts | 129° |
| 2026-04-29 22:45 | -17.53447 | -50.47421 | 32953 ft | 460 kts | 129° |
| 2026-04-29 22:46 | -17.57414 | -50.42152 | 32950 ft | 460 kts | 129° |
| 2026-04-29 22:46 | -17.61381 | -50.36878 | 32952 ft | 460 kts | 129° |
| 2026-04-29 22:47 | -17.65343 | -50.31607 | 32950 ft | 460 kts | 129° |
| 2026-04-29 22:47 | -17.69307 | -50.26327 | 32948 ft | 460 kts | 129° |
| 2026-04-29 22:48 | -17.73266 | -50.21050 | 32947 ft | 460 kts | 129° |
| 2026-04-29 22:48 | -17.77205 | -50.15752 | 32947 ft | 461 kts | 125° |
| 2026-04-29 22:49 | -17.80046 | -50.09748 | 32960 ft | 460 kts | 108° |
| 2026-04-29 22:49 | -17.82090 | -50.03376 | 32952 ft | 461 kts | 108° |
| 2026-04-29 22:50 | -17.84198 | -49.97017 | 32957 ft | 461 kts | 109° |
| 2026-04-29 22:50 | -17.86329 | -49.90706 | 32964 ft | 461 kts | 109° |
| 2026-04-29 22:51 | -17.88482 | -49.84347 | 32959 ft | 462 kts | 109° |
| 2026-04-29 22:51 | -17.91710 | -49.74827 | 32974 ft | 462 kts | 109° |
| 2026-04-29 22:52 | -17.93860 | -49.68473 | 32969 ft | 462 kts | 109° |
| 2026-04-29 22:52 | -17.96008 | -49.62114 | 32976 ft | 461 kts | 109° |
| 2026-04-29 22:53 | -17.98138 | -49.55800 | 32979 ft | 461 kts | 109° |
| 2026-04-29 22:53 | -18.00278 | -49.49448 | 32981 ft | 461 kts | 109° |
| 2026-04-29 22:54 | -18.02412 | -49.43108 | 32985 ft | 461 kts | 109° |
| 2026-04-29 22:54 | -18.04547 | -49.36756 | 32989 ft | 460 kts | 109° |
| 2026-04-29 22:55 | -18.06678 | -49.30410 | 32987 ft | 460 kts | 109° |
| 2026-04-29 22:55 | -18.08802 | -49.24073 | 32990 ft | 460 kts | 109° |
| 2026-04-29 22:56 | -18.10928 | -49.17728 | 32991 ft | 460 kts | 109° |
| 2026-04-29 22:56 | -18.13054 | -49.11386 | 32988 ft | 460 kts | 109° |
| 2026-04-29 22:57 | -18.15175 | -49.05051 | 32984 ft | 459 kts | 109° |
| 2026-04-29 22:57 | -18.17290 | -48.98721 | 32995 ft | 459 kts | 109° |
| 2026-04-29 22:58 | -18.19393 | -48.92423 | 32989 ft | 459 kts | 109° |
| 2026-04-29 22:58 | -18.21504 | -48.86093 | 32994 ft | 459 kts | 109° |
| 2026-04-29 22:59 | -18.23614 | -48.79752 | 33001 ft | 459 kts | 109° |
| 2026-04-29 22:59 | -18.25721 | -48.73412 | 32998 ft | 459 kts | 109° |
| 2026-04-29 23:00 | -18.27828 | -48.67064 | 32998 ft | 460 kts | 109° |
| 2026-04-29 23:00 | -18.29937 | -48.60706 | 33011 ft | 459 kts | 109° |
| 2026-04-29 23:01 | -18.32019 | -48.54394 | 33008 ft | 460 kts | 109° |
| 2026-04-29 23:01 | -18.34104 | -48.48023 | 33009 ft | 460 kts | 109° |
| 2026-04-29 23:02 | -18.36182 | -48.41664 | 33015 ft | 460 kts | 109° |
| 2026-04-29 23:02 | -18.38263 | -48.35293 | 33017 ft | 460 kts | 109° |
| 2026-04-29 23:03 | -18.40341 | -48.28925 | 33017 ft | 460 kts | 109° |
| 2026-04-29 23:03 | -18.42431 | -48.22563 | 33019 ft | 460 kts | 109° |
| 2026-04-29 23:04 | -18.44540 | -48.16212 | 33017 ft | 459 kts | 109° |
| 2026-04-29 23:04 | -18.46641 | -48.09853 | 33023 ft | 459 kts | 109° |
| 2026-04-29 23:05 | -18.48716 | -48.03536 | 33021 ft | 459 kts | 109° |
| 2026-04-29 23:05 | -18.50803 | -47.97171 | 33031 ft | 459 kts | 109° |
| 2026-04-29 23:06 | -18.52887 | -47.90811 | 33027 ft | 459 kts | 109° |
| 2026-04-29 23:06 | -18.54969 | -47.84450 | 33033 ft | 459 kts | 109° |
| 2026-04-29 23:07 | -18.57050 | -47.78084 | 33028 ft | 459 kts | 109° |
| 2026-04-29 23:07 | -18.59127 | -47.71722 | 33036 ft | 459 kts | 109° |
| 2026-04-29 23:08 | -18.61198 | -47.65365 | 33031 ft | 459 kts | 109° |
| 2026-04-29 23:08 | -18.63250 | -47.59029 | 33041 ft | 459 kts | 109° |
| 2026-04-29 23:09 | -18.65305 | -47.52663 | 33046 ft | 459 kts | 109° |
| 2026-04-29 23:09 | -18.67363 | -47.46287 | 33046 ft | 459 kts | 109° |
| 2026-04-29 23:10 | -18.69421 | -47.39899 | 33048 ft | 459 kts | 109° |
| 2026-04-29 23:10 | -18.71476 | -47.33515 | 33060 ft | 459 kts | 109° |
| 2026-04-29 23:11 | -18.73529 | -47.27130 | 33057 ft | 459 kts | 109° |
| 2026-04-29 23:11 | -18.75568 | -47.20783 | 33060 ft | 459 kts | 109° |
| 2026-04-29 23:12 | -18.77616 | -47.14401 | 33063 ft | 459 kts | 109° |
| 2026-04-29 23:12 | -18.79665 | -47.08012 | 33064 ft | 459 kts | 109° |
| 2026-04-29 23:13 | -18.81377 | -47.02668 | 33067 ft | 459 kts | 109° |
| 2026-04-29 23:13 | -18.83418 | -46.96285 | 33068 ft | 459 kts | 109° |
| 2026-04-29 23:14 | -18.85445 | -46.89939 | 33073 ft | 459 kts | 109° |
| 2026-04-29 23:14 | -18.87480 | -46.83558 | 33075 ft | 459 kts | 109° |
| 2026-04-29 23:15 | -18.89513 | -46.77175 | 33073 ft | 458 kts | 109° |
| 2026-04-29 23:15 | -18.91543 | -46.70792 | 33084 ft | 458 kts | 109° |
| 2026-04-29 23:16 | -18.93571 | -46.64411 | 33078 ft | 458 kts | 109° |
| 2026-04-29 23:16 | -18.95688 | -46.58068 | 33079 ft | 458 kts | 110° |
| 2026-04-29 23:17 | -18.97882 | -46.51757 | 33084 ft | 458 kts | 110° |
| 2026-04-29 23:17 | -19.00055 | -46.45474 | 33082 ft | 458 kts | 110° |
| 2026-04-29 23:18 | -19.02227 | -46.39140 | 33082 ft | 458 kts | 110° |
| 2026-04-29 23:18 | -19.04389 | -46.32810 | 33087 ft | 458 kts | 110° |
| 2026-04-29 23:19 | -19.06555 | -46.26462 | 33084 ft | 458 kts | 110° |
| 2026-04-29 23:19 | -19.09406 | -46.20476 | 33087 ft | 456 kts | 129° |
| 2026-04-29 23:20 | -19.13886 | -46.15845 | 33100 ft | 453 kts | 142° |
| 2026-04-29 23:20 | -19.18774 | -46.11565 | 33088 ft | 454 kts | 142° |
| 2026-04-29 23:21 | -19.23614 | -46.07268 | 33089 ft | 454 kts | 141° |
| 2026-04-29 23:21 | -19.28413 | -46.02967 | 33083 ft | 455 kts | 141° |
| 2026-04-29 23:22 | -19.33239 | -45.98626 | 33076 ft | 456 kts | 141° |
| 2026-04-29 23:22 | -19.38077 | -45.94270 | 33076 ft | 456 kts | 141° |
| 2026-04-29 23:23 | -19.42911 | -45.89915 | 33075 ft | 456 kts | 141° |
| 2026-04-29 23:23 | -19.47755 | -45.85549 | 33067 ft | 456 kts | 141° |
| 2026-04-29 23:24 | -19.52556 | -45.81217 | 33069 ft | 456 kts | 141° |
| 2026-04-29 23:24 | -19.57391 | -45.76853 | 33062 ft | 456 kts | 141° |
| 2026-04-29 23:25 | -19.62228 | -45.72482 | 33060 ft | 456 kts | 141° |
| 2026-04-29 23:25 | -19.67063 | -45.68109 | 33058 ft | 456 kts | 141° |
| 2026-04-29 23:26 | -19.71885 | -45.63745 | 33060 ft | 456 kts | 141° |
| 2026-04-29 23:26 | -19.76715 | -45.59370 | 33060 ft | 456 kts | 141° |
| 2026-04-29 23:27 | -19.81559 | -45.54980 | 33068 ft | 461 kts | 141° |
| 2026-04-29 23:27 | -19.86510 | -45.50490 | 33075 ft | 474 kts | 141° |
| 2026-04-29 23:28 | -19.91588 | -45.45880 | 33072 ft | 485 kts | 141° |
| 2026-04-29 23:28 | -19.96743 | -45.41194 | 33074 ft | 495 kts | 141° |
| 2026-04-29 23:29 | -20.02009 | -45.36402 | 33061 ft | 498 kts | 141° |
| 2026-04-29 23:29 | -20.07275 | -45.31605 | 33066 ft | 498 kts | 141° |
| 2026-04-29 23:30 | -20.12533 | -45.26812 | 33069 ft | 497 kts | 141° |
| 2026-04-29 23:30 | -20.17788 | -45.22018 | 33081 ft | 497 kts | 141° |
| 2026-04-29 23:31 | -20.23032 | -45.17231 | 33074 ft | 496 kts | 141° |
| 2026-04-29 23:31 | -20.28274 | -45.12440 | 33081 ft | 496 kts | 141° |
| 2026-04-29 23:32 | -20.33507 | -45.07654 | 33082 ft | 496 kts | 141° |
| 2026-04-29 23:32 | -20.38738 | -45.02864 | 33078 ft | 495 kts | 141° |
| 2026-04-29 23:33 | -20.43939 | -44.98097 | 33083 ft | 496 kts | 141° |
| 2026-04-29 23:33 | -20.49183 | -44.93287 | 33083 ft | 496 kts | 141° |
| 2026-04-29 23:34 | -20.54422 | -44.88477 | 33089 ft | 497 kts | 141° |
| 2026-04-29 23:34 | -20.59632 | -44.83688 | 33084 ft | 497 kts | 141° |
| 2026-04-29 23:35 | -20.64889 | -44.78853 | 33092 ft | 498 kts | 141° |
| 2026-04-29 23:35 | -20.70136 | -44.74021 | 33097 ft | 498 kts | 141° |
| 2026-04-29 23:36 | -20.75390 | -44.69179 | 33099 ft | 499 kts | 141° |
| 2026-04-29 23:36 | -20.80648 | -44.64328 | 33100 ft | 499 kts | 141° |
| 2026-04-29 23:37 | -20.85903 | -44.59475 | 33103 ft | 500 kts | 141° |
| 2026-04-29 23:37 | -20.91163 | -44.54613 | 33105 ft | 500 kts | 141° |
| 2026-04-29 23:38 | -20.96399 | -44.49768 | 33102 ft | 500 kts | 141° |
| 2026-04-29 23:38 | -21.01629 | -44.44922 | 33080 ft | 487 kts | 141° |
| 2026-04-29 23:39 | -21.04142 | -44.42590 | 33082 ft | 469 kts | 141° |
| 2026-04-29 23:39 | -21.06578 | -44.40332 | 33102 ft | 462 kts | 141° |
| 2026-04-29 23:39 | -21.11847 | -44.36487 | 33119 ft | 457 kts | 153° |
| 2026-04-29 23:40 | -21.17358 | -44.33123 | 33102 ft | 451 kts | 153° |
| 2026-04-29 23:40 | -21.22738 | -44.29721 | 33111 ft | 449 kts | 152° |
| 2026-04-29 23:41 | -21.28081 | -44.26289 | 32693 ft | 449 kts | 152° |
| 2026-04-29 23:41 | -21.30736 | -44.24569 | 32351 ft | 444 kts | 152° |
| 2026-04-29 23:41 | -21.33369 | -44.22862 | 31960 ft | 441 kts | 152° |
| 2026-04-29 23:42 | -21.35986 | -44.21168 | 31575 ft | 438 kts | 152° |
| 2026-04-29 23:42 | -21.38585 | -44.19486 | 31198 ft | 435 kts | 152° |
| 2026-04-29 23:42 | -21.41175 | -44.17811 | 30814 ft | 433 kts | 152° |
| 2026-04-29 23:42 | -21.43754 | -44.16143 | 30425 ft | 431 kts | 152° |
| 2026-04-29 23:43 | -21.46317 | -44.14484 | 30019 ft | 430 kts | 151° |
| 2026-04-29 23:43 | -21.48870 | -44.12833 | 29586 ft | 427 kts | 152° |
| 2026-04-29 23:43 | -21.51407 | -44.11192 | 29164 ft | 424 kts | 151° |
| 2026-04-29 23:43 | -21.53930 | -44.09560 | 28757 ft | 421 kts | 151° |
| 2026-04-29 23:44 | -21.56429 | -44.07942 | 28350 ft | 418 kts | 151° |
| 2026-04-29 23:44 | -21.58939 | -44.06392 | 27962 ft | 414 kts | 155° |
| 2026-04-29 23:44 | -21.61509 | -44.05034 | 27574 ft | 410 kts | 158° |
| 2026-04-29 23:44 | -21.64101 | -44.03754 | 27196 ft | 408 kts | 158° |
| 2026-04-29 23:45 | -21.66671 | -44.02494 | 26809 ft | 406 kts | 158° |
| 2026-04-29 23:45 | -21.69200 | -44.01236 | 26438 ft | 404 kts | 158° |
| 2026-04-29 23:45 | -21.71771 | -43.99936 | 26058 ft | 402 kts | 158° |
| 2026-04-29 23:45 | -21.74287 | -43.98648 | 25686 ft | 400 kts | 157° |
| 2026-04-29 23:46 | -21.76799 | -43.97356 | 25295 ft | 399 kts | 158° |
| 2026-04-29 23:46 | -21.79272 | -43.96082 | 24933 ft | 397 kts | 157° |
| 2026-04-29 23:46 | -21.81759 | -43.94800 | 24530 ft | 397 kts | 157° |
| 2026-04-29 23:46 | -21.84244 | -43.93520 | 24169 ft | 395 kts | 157° |
| 2026-04-29 23:47 | -21.86725 | -43.92241 | 23803 ft | 394 kts | 157° |
| 2026-04-29 23:47 | -21.89192 | -43.90970 | 23379 ft | 393 kts | 157° |
| 2026-04-29 23:47 | -21.91657 | -43.89698 | 22985 ft | 391 kts | 157° |
| 2026-04-29 23:47 | -21.94110 | -43.88433 | 22589 ft | 389 kts | 156° |
| 2026-04-29 23:48 | -21.96541 | -43.87178 | 22216 ft | 387 kts | 157° |
| 2026-04-29 23:48 | -21.98965 | -43.85926 | 21838 ft | 384 kts | 156° |
| 2026-04-29 23:48 | -22.01364 | -43.84686 | 21469 ft | 382 kts | 157° |
| 2026-04-29 23:48 | -22.03754 | -43.83451 | 21099 ft | 379 kts | 156° |
| 2026-04-29 23:49 | -22.06125 | -43.82225 | 20741 ft | 377 kts | 157° |
| 2026-04-29 23:49 | -22.08485 | -43.81005 | 20371 ft | 375 kts | 156° |
| 2026-04-29 23:49 | -22.10837 | -43.79788 | 20009 ft | 374 kts | 156° |
| 2026-04-29 23:49 | -22.13173 | -43.78579 | 19639 ft | 372 kts | 156° |
| 2026-04-29 23:50 | -22.15479 | -43.77385 | 19279 ft | 371 kts | 157° |
| 2026-04-29 23:50 | -22.17800 | -43.76183 | 18910 ft | 370 kts | 156° |
| 2026-04-29 23:50 | -22.22430 | -43.73784 | 18137 ft | 368 kts | 156° |
| 2026-04-29 23:51 | -22.24731 | -43.72590 | 17753 ft | 365 kts | 156° |
| 2026-04-29 23:51 | -22.27019 | -43.71404 | 17375 ft | 363 kts | 156° |
| 2026-04-29 23:51 | -22.29287 | -43.70227 | 17009 ft | 361 kts | 156° |
| 2026-04-29 23:51 | -22.31545 | -43.69054 | 16658 ft | 359 kts | 156° |
| 2026-04-29 23:52 | -22.33785 | -43.67891 | 16299 ft | 356 kts | 155° |
| 2026-04-29 23:52 | -22.36011 | -43.66734 | 15954 ft | 354 kts | 155° |
| 2026-04-29 23:52 | -22.38226 | -43.65583 | 15586 ft | 352 kts | 155° |
| 2026-04-29 23:52 | -22.40428 | -43.64438 | 15244 ft | 350 kts | 155° |
| 2026-04-29 23:53 | -22.42618 | -43.63299 | 14899 ft | 348 kts | 155° |
| 2026-04-29 23:53 | -22.44801 | -43.62164 | 14551 ft | 347 kts | 155° |
| 2026-04-29 23:53 | -22.46896 | -43.60896 | 14178 ft | 346 kts | 140° |
| 2026-04-29 23:53 | -22.48463 | -43.58965 | 13898 ft | 340 kts | 125° |
| 2026-04-29 23:54 | -22.49853 | -43.56909 | 13519 ft | 335 kts | 125° |
| 2026-04-29 23:54 | -22.51227 | -43.54908 | 13151 ft | 327 kts | 126° |
| 2026-04-29 23:54 | -22.52573 | -43.52958 | 12810 ft | 320 kts | 126° |
| 2026-04-29 23:54 | -22.53879 | -43.51074 | 12474 ft | 314 kts | 126° |
| 2026-04-29 23:55 | -22.55178 | -43.49202 | 12144 ft | 308 kts | 126° |
| 2026-04-29 23:55 | -22.56454 | -43.47364 | 11810 ft | 303 kts | 127° |
| 2026-04-29 23:55 | -22.57708 | -43.45557 | 11498 ft | 297 kts | 126° |
| 2026-04-29 23:55 | -22.58935 | -43.43789 | 11179 ft | 291 kts | 127° |
| 2026-04-29 23:56 | -22.60141 | -43.42053 | 10871 ft | 286 kts | 127° |
| 2026-04-29 23:56 | -22.61323 | -43.40349 | 10578 ft | 281 kts | 127° |
| 2026-04-29 23:56 | -22.62486 | -43.38674 | 10293 ft | 276 kts | 127° |
| 2026-04-29 23:56 | -22.63612 | -43.37051 | 10169 ft | 264 kts | 127° |
| 2026-04-29 23:57 | -22.64690 | -43.35496 | 10058 ft | 252 kts | 127° |
| 2026-04-29 23:57 | -22.65711 | -43.34024 | 10025 ft | 238 kts | 127° |
| 2026-04-29 23:57 | -22.66740 | -43.32643 | 10041 ft | 235 kts | 138° |
| 2026-04-29 23:57 | -22.68150 | -43.31774 | 10048 ft | 236 kts | 158° |
| 2026-04-29 23:58 | -22.69673 | -43.31097 | 9973 ft | 234 kts | 157° |
| 2026-04-29 23:58 | -22.71168 | -43.30416 | 9704 ft | 231 kts | 157° |
| 2026-04-29 23:58 | -22.72465 | -43.29485 | 9438 ft | 221 kts | 126° |
| 2026-04-29 23:58 | -22.72886 | -43.28507 | 9186 ft | 217 kts | 98° |
| 2026-04-29 23:59 | -22.72397 | -43.26448 | 8646 ft | 215 kts | 62° |
| 2026-04-29 23:59 | -22.71984 | -43.25476 | 8373 ft | 215 kts | 69° |
| 2026-04-29 23:59 | -22.71468 | -43.23953 | 7990 ft | 215 kts | 71° |
| 2026-04-29 23:59 | -22.70976 | -43.22435 | 7637 ft | 213 kts | 71° |
| 2026-04-30 00:00 | -22.70325 | -43.20434 | 7173 ft | 212 kts | 70° |
| 2026-04-30 00:00 | -22.69994 | -43.19420 | 6944 ft | 211 kts | 70° |
| 2026-04-30 00:00 | -22.69508 | -43.17936 | 6681 ft | 208 kts | 70° |
| 2026-04-30 00:00 | -22.69023 | -43.16462 | 6472 ft | 206 kts | 70° |
| 2026-04-30 00:01 | -22.68543 | -43.15005 | 6224 ft | 204 kts | 70° |
| 2026-04-30 00:01 | -22.68071 | -43.13573 | 5993 ft | 200 kts | 70° |
| 2026-04-30 00:01 | -22.67605 | -43.12165 | 5783 ft | 196 kts | 70° |
| 2026-04-30 00:01 | -22.67152 | -43.10797 | 5574 ft | 190 kts | 70° |
| 2026-04-30 00:02 | -22.66712 | -43.09467 | 5369 ft | 185 kts | 70° |
| 2026-04-30 00:02 | -22.66285 | -43.08180 | 5176 ft | 183 kts | 69° |
| 2026-04-30 00:02 | -22.65856 | -43.06870 | 4980 ft | 182 kts | 71° |
| 2026-04-30 00:02 | -22.65540 | -43.05572 | 4929 ft | 176 kts | 75° |
| 2026-04-30 00:03 | -22.65250 | -43.04274 | 4985 ft | 179 kts | 79° |
| 2026-04-30 00:03 | -22.65432 | -43.02947 | 4976 ft | 185 kts | 125° |
| 2026-04-30 00:03 | -22.66500 | -43.02212 | 4987 ft | 189 kts | 174° |
| 2026-04-30 00:03 | -22.67790 | -43.02386 | 4992 ft | 185 kts | 189° |
| 2026-04-30 00:04 | -22.69057 | -43.02290 | 4728 ft | 182 kts | 168° |
| 2026-04-30 00:04 | -22.70324 | -43.02125 | 4349 ft | 185 kts | 182° |
| 2026-04-30 00:04 | -22.71514 | -43.02592 | 3986 ft | 184 kts | 213° |
| 2026-04-30 00:04 | -22.72623 | -43.03264 | 3668 ft | 183 kts | 206° |
| 2026-04-30 00:05 | -22.73771 | -43.03861 | 3350 ft | 183 kts | 208° |
| 2026-04-30 00:05 | -22.74659 | -43.04808 | 3071 ft | 179 kts | 250° |
| 2026-04-30 00:05 | -22.74913 | -43.06069 | 2890 ft | 168 kts | 257° |
| 2026-04-30 00:05 | -22.75343 | -43.07201 | 2708 ft | 165 kts | 243° |
| 2026-04-30 00:06 | -22.75793 | -43.08346 | 2523 ft | 164 kts | 251° |
| 2026-04-30 00:06 | -22.76130 | -43.09541 | 2280 ft | 164 kts | 254° |
| 2026-04-30 00:06 | -22.76435 | -43.10727 | 2059 ft | 163 kts | 254° |
| 2026-04-30 00:06 | -22.76735 | -43.11909 | 1857 ft | 162 kts | 255° |
| 2026-04-30 00:07 | -22.77033 | -43.13089 | 1647 ft | 163 kts | 254° |
| 2026-04-30 00:07 | -22.77331 | -43.14268 | 1426 ft | 162 kts | 254° |
| 2026-04-30 00:07 | -22.77625 | -43.15445 | 1240 ft | 161 kts | 255° |
| 2026-04-30 00:07 | -22.77832 | -43.16628 | 1092 ft | 162 kts | 258° |
| 2026-04-30 00:08 | -22.78110 | -43.17797 | 932 ft | 160 kts | 250° |
| 2026-04-30 00:08 | -22.78477 | -43.18953 | 774 ft | 161 kts | 252° |
| 2026-04-30 00:08 | -22.78776 | -43.20109 | 489 ft | 159 kts | 252° |
| 2026-04-30 00:08 | -22.79068 | -43.21232 | 241 ft | 150 kts | 252° |
| 2026-04-30 00:09 | -22.79344 | -43.22293 | 35 ft | 138 kts | 253° |
| 2026-04-30 00:09 | -22.79554 | -43.23069 | 35 ft | 76 kts | 255° |
| 2026-04-30 00:09 | -22.79662 | -43.23479 | 27 ft | 51 kts | 253° |
| 2026-04-30 00:09 | -22.79745 | -43.23788 | 26 ft | 28 kts | 249° |
| 2026-04-30 00:10 | -22.79822 | -43.23937 | 27 ft | 7 kts | 234° |
| 2026-04-30 00:10 | -22.79852 | -43.23982 | 27 ft | 7 kts | 235° |
| 2026-04-30 00:10 | -22.79862 | -43.23997 | 27 ft | 0 kts | 235° |
| 2026-04-30 00:13 | -22.79875 | -43.24019 | 27 ft | 11 kts | 235° |
| 2026-04-30 00:13 | -22.79921 | -43.24093 | 29 ft | 12 kts | 235° |
| 2026-04-30 00:14 | -22.79968 | -43.24165 | 30 ft | 12 kts | 234° |
| 2026-04-30 00:14 | -22.80016 | -43.24234 | 29 ft | 11 kts | 233° |
| 2026-04-30 00:14 | -22.80062 | -43.24301 | 28 ft | 11 kts | 233° |
| 2026-04-30 00:14 | -22.80105 | -43.24366 | 28 ft | 11 kts | 235° |
| 2026-04-30 00:15 | -22.80146 | -43.24432 | 28 ft | 10 kts | 236° |
| 2026-04-30 00:15 | -22.80187 | -43.24493 | 27 ft | 10 kts | 231° |
| 2026-04-30 00:15 | -22.80238 | -43.24545 | 27 ft | 10 kts | 218° |
| 2026-04-30 00:15 | -22.80292 | -43.24589 | 27 ft | 10 kts | 231° |
| 2026-04-30 00:16 | -22.80317 | -43.24656 | 27 ft | 9 kts | 256° |
| 2026-04-30 00:16 | -22.80333 | -43.24725 | 25 ft | 9 kts | 255° |
| 2026-04-30 00:16 | -22.80351 | -43.24791 | 25 ft | 9 kts | 253° |
| 2026-04-30 00:16 | -22.80368 | -43.24855 | 29 ft | 9 kts | 255° |
| 2026-04-30 00:17 | -22.80383 | -43.24918 | 28 ft | 8 kts | 256° |
| 2026-04-30 00:17 | -22.80398 | -43.24980 | 26 ft | 9 kts | 254° |
| 2026-04-30 00:17 | -22.80414 | -43.25042 | 28 ft | 8 kts | 253° |
| 2026-04-30 00:17 | -22.80432 | -43.25106 | 28 ft | 9 kts | 254° |
| 2026-04-30 00:18 | -22.80453 | -43.25180 | 28 ft | 11 kts | 249° |
| 2026-04-30 00:18 | -22.80486 | -43.25264 | 27 ft | 13 kts | 242° |
| 2026-04-30 00:18 | -22.80542 | -43.25348 | 27 ft | 14 kts | 230° |
| 2026-04-30 00:18 | -22.80609 | -43.25417 | 27 ft | 14 kts | 218° |
| 2026-04-30 00:19 | -22.80707 | -43.25494 | 21 ft | 19 kts | 216° |
| 2026-04-30 00:19 | -22.80811 | -43.25575 | 21 ft | 18 kts | 216° |
| 2026-04-30 00:19 | -22.80912 | -43.25653 | 22 ft | 18 kts | 216° |
| 2026-04-30 00:19 | -22.81020 | -43.25736 | 23 ft | 20 kts | 215° |
| 2026-04-30 00:20 | -22.81116 | -43.25810 | 21 ft | 13 kts | 216° |
| 2026-04-30 00:20 | -22.81198 | -43.25807 | 21 ft | 14 kts | 130° |
| 2026-04-30 00:20 | -22.81260 | -43.25715 | 21 ft | 16 kts | 123° |
| 2026-04-30 00:20 | -22.81329 | -43.25609 | 20 ft | 19 kts | 126° |
| 2026-04-30 00:21 | -22.81411 | -43.25487 | 20 ft | 21 kts | 124° |
| 2026-04-30 00:21 | -22.81499 | -43.25354 | 22 ft | 23 kts | 126° |
| 2026-04-30 00:21 | -22.81595 | -43.25208 | 20 ft | 25 kts | 125° |
| 2026-04-30 00:21 | -22.81698 | -43.25052 | 20 ft | 26 kts | 126° |
| 2026-04-30 00:22 | -22.81808 | -43.24887 | 20 ft | 28 kts | 126° |
| 2026-04-30 00:22 | -22.81915 | -43.24725 | 20 ft | 10 kts | 125° |
| 2026-04-30 00:22 | -22.81929 | -43.24703 | 21 ft | 5 kts | 123° |
| 2026-04-30 00:22 | -22.81936 | -43.24658 | 22 ft | 7 kts | 75° |
| 2026-04-30 00:23 | -22.81936 | -43.24595 | 20 ft | 10 kts | 113° |
| 2026-04-30 00:23 | -22.81979 | -43.24526 | 20 ft | 12 kts | 126° |
| 2026-04-30 00:23 | -22.82035 | -43.24444 | 20 ft | 14 kts | 126° |
| 2026-04-30 00:23 | -22.82081 | -43.24371 | 23 ft | 8 kts | 117° |
| 2026-04-30 00:24 | -22.82087 | -43.24343 | 20 ft | 2 kts | 90° |
| 2026-04-30 00:24 | -22.82084 | -43.24330 | 20 ft | 2 kts | 69° |
| 2026-04-30 00:24 | -22.82076 | -43.24320 | 22 ft | 2 kts | 45° |
| 2026-04-30 00:24 | -22.82066 | -43.24314 | 21 ft | 2 kts | 25° |
| 2026-04-30 00:25 | -22.82055 | -43.24313 | 20 ft | 2 kts | 353° |
| 2026-04-30 00:25 | -22.82045 | -43.24316 | 20 ft | 1 kts | 345° |
| 2026-04-30 00:25 | -22.82036 | -43.24319 | 22 ft | 1 kts | 343° |
| 2026-04-30 00:25 | -22.82028 | -43.24321 | 21 ft | 1 kts | 343° |
| 2026-04-30 00:26 | -22.82021 | -43.24323 | 20 ft | 1 kts | 347° |
| 2026-04-30 00:26 | -22.82015 | -43.24325 | 20 ft | 1 kts | 348° |
| 2026-04-30 00:26 | -22.82008 | -43.24326 | 20 ft | 1 kts | 355° |
| 2026-04-30 00:26 | -22.81999 | -43.24326 | 21 ft | 3 kts | 354° |
| 2026-04-30 00:27 | -22.81979 | -43.24329 | 21 ft | 3 kts | 354° |
| 2026-04-30 00:27 | -22.81960 | -43.24331 | 21 ft | 3 kts | 353° |
| 2026-04-30 00:27 | -22.81955 | -43.24332 | 21 ft | 0 kts | 353° |